Observation data for Doole 3WNW on 05/24/2020      Previous  Date  Next       Current Mesonet Observations  Soil Data  Daily Summary Page  Observations in Plain Language
KDO2 240500Z 31005KT 24/15 A2981 RMK A01 T02410149  RH  057%=      5-min Rain = 0
KDO2 240501Z 32005KT 24/15 A2981 RMK A01 T02410147  RH  056%=      5-min Rain = 0
KDO2 240502Z 32004KT 24/15 A298 RMK A01 T02420148  RH  056%=      5-min Rain = 0
KDO2 240503Z 32003KT 24/15 A298 RMK A01 T02430148  RH  055%=      5-min Rain = 0
KDO2 240504Z 01001KT 24/15 A298 RMK A01 T02430148  RH  055%=      5-min Rain = 0
KDO2 240505Z 03002KT 24/15 A298 RMK A01 T02430148  RH  056%=      5-min Rain = 0
KDO2 240506Z 05003KT 24/15 A2979 RMK A01 T02430148  RH  055%=      5-min Rain = 0
KDO2 240507Z 07003KT 24/15 A2979 RMK A01 T02430149  RH  056%=      5-min Rain = 0
KDO2 240508Z 08003KT 24/15 A2979 RMK A01 T02420150  RH  056%=      5-min Rain = 0
KDO2 240509Z 07003KT 24/15 A2979 RMK A01 T02420150  RH  057%=      5-min Rain = 0
KDO2 240510Z 05003KT 24/15 A2979 RMK A01 T02410148  RH  056%=      5-min Rain = 0
KDO2 240511Z 05003KT 24/15 A2979 RMK A01 T02410148  RH  056%=      5-min Rain = 0
KDO2 240512Z 04003KT 24/15 A2979 RMK A01 T02410147  RH  056%=      5-min Rain = 0
KDO2 240513Z 03005KT 24/15 A2979 RMK A01 T02420148  RH  056%=      5-min Rain = 0
KDO2 240514Z 04003KT 24/15 A2979 RMK A01 T02430147  RH  055%=      5-min Rain = 0
KDO2 240515Z 04004KT 24/15 A2979 RMK A01 T02430148  RH  055%=      5-min Rain = 0
KDO2 240516Z 03003KT 24/15 A2979 RMK A01 T02440149  RH  056%=      5-min Rain = 0
KDO2 240517Z 03003KT 24/15 A2979 RMK A01 T02440149  RH  056%=      5-min Rain = 0
KDO2 240518Z 02005KT 24/15 A2979 RMK A01 T02440150  RH  056%=      5-min Rain = 0
KDO2 240519Z 02005KT 24/15 A2979 RMK A01 T02430149  RH  056%=      5-min Rain = 0
KDO2 240520Z 01004KT 24/15 A2979 RMK A01 T02430149  RH  056%=      5-min Rain = 0
KDO2 240521Z 01004KT 24/15 A2978 RMK A01 T02420149  RH  056%=      5-min Rain = 0
KDO2 240522Z 36004KT 24/15 A2979 RMK A01 T02410150  RH  057%=      5-min Rain = 0
KDO2 240523Z 00003KT 24/15 A2979 RMK A01 T02400149  RH  057%=      5-min Rain = 0
KDO2 240524Z 35002KT 24/15 A2979 RMK A01 T02400150  RH  057%=      5-min Rain = 0
KDO2 240525Z 35002KT 24/15 A2979 RMK A01 T02390150  RH  057%=      5-min Rain = 0
KDO2 240526Z 34002KT 24/15 A2979 RMK A01 T02390150  RH  057%=      5-min Rain = 0
KDO2 240527Z 34001KT 24/15 A2979 RMK A01 T02390149  RH  057%=      5-min Rain = 0
KDO2 240528Z 35001KT 24/15 A2979 RMK A01 T02390149  RH  057%=      5-min Rain = 0
KDO2 240529Z 03001KT 24/15 A2979 RMK A01 T02390148  RH  057%=      5-min Rain = 0
KDO2 240530Z 08001KT 24/15 A2978 RMK A01 T02390149  RH  057%=      5-min Rain = 0
KDO2 240531Z 06003KT 24/15 A2978 RMK A01 T02390149  RH  057%=      5-min Rain = 0
KDO2 240532Z 06005KT 24/15 A2978 RMK A01 T02390148  RH  057%=      5-min Rain = 0
KDO2 240533Z 06006KT 24/15 A2978 RMK A01 T02410146  RH  055%=      5-min Rain = 0
KDO2 240534Z 07007KT 24/15 A2978 RMK A01 T02440147  RH  055%=      5-min Rain = 0
KDO2 240535Z 07007KT 24/15 A2978 RMK A01 T02440148  RH  055%=      5-min Rain = 0
KDO2 240536Z 08008KT 24/15 A2978 RMK A01 T02440149  RH  055%=      5-min Rain = 0
KDO2 240537Z 08007KT 24/15 A2978 RMK A01 T02430150  RH  056%=      5-min Rain = 0
KDO2 240538Z 09008KT 24/15 A2979 RMK A01 T02420152  RH  057%=      5-min Rain = 0
KDO2 240539Z 09007KT 24/15 A2979 RMK A01 T02400152  RH  058%=      5-min Rain = 0
KDO2 240540Z 09007KT 24/15 A2979 RMK A01 T02390151  RH  058%=      5-min Rain = 0
KDO2 240541Z 09006KT 24/15 A2979 RMK A01 T02390152  RH  058%=      5-min Rain = 0
KDO2 240542Z 08006KT 24/15 A2979 RMK A01 T02390154  RH  059%=      5-min Rain = 0
KDO2 240543Z 08005KT 24/16 A298 RMK A01 T02400156  RH  059%=      5-min Rain = 0
KDO2 240544Z 07004KT 24/16 A298 RMK A01 T02400157  RH  060%=      5-min Rain = 0
KDO2 240545Z 04003KT 24/16 A298 RMK A01 T02410157  RH  059%=      5-min Rain = 0
KDO2 240546Z 32007KT 24/16 A298 RMK A01 T02410156  RH  059%=      5-min Rain = 0
KDO2 240547Z 31009KT 24/15 A298 RMK A01 T02400153  RH  058%=      5-min Rain = 0
KDO2 240548Z 31011KT 24/15 A2981 RMK A01 T02390152  RH  058%=      5-min Rain = 0
KDO2 240549Z 31009KT 24/15 A2981 RMK A01 T02400153  RH  058%=      5-min Rain = 0
KDO2 240550Z 30007KT 24/15 A2981 RMK A01 T02410154  RH  058%=      5-min Rain = 0
KDO2 240551Z 29006KT 24/16 A2981 RMK A01 T02420157  RH  059%=      5-min Rain = 0
KDO2 240552Z 32004KT 24/16 A2981 RMK A01 T02420157  RH  059%=      5-min Rain = 0
KDO2 240553Z 33004KT 25/16 A2981 RMK A01 T02470156  RH  057%=      5-min Rain = 0
KDO2 240554Z 36003KT 25/16 A2981 RMK A01 T02520158  RH  056%=      5-min Rain = 0
KDO2 240555Z 00002KT 25/16 A2981 RMK A01 T02530159  RH  056%=      5-min Rain = 0
KDO2 240556Z 33002KT 25/16 A2981 RMK A01 T02540159  RH  056%=      5-min Rain = 0
KDO2 240557Z 30002KT 25/16 A2981 RMK A01 T02540157  RH  055%=      5-min Rain = 0
KDO2 240558Z 28004KT 26/16 A2981 RMK A01 T02550158  RH  055%=      5-min Rain = 0
KDO2 240559Z 29006KT 25/16 A2982 RMK A01 T02520157  RH  055%=      5-min Rain = 0
KDO2 240600Z 31006KT 25/16 A2982 RMK A01 T02480157  RH  057%=      5-min Rain = 0
KDO2 240601Z 30005KT 25/16 A2982 RMK A01 T02450159  RH  059%=      5-min Rain = 0
KDO2 240602Z 30005KT 24/16 A2982 RMK A01 T02420159  RH  060%=      5-min Rain = 0
KDO2 240603Z 31005KT 24/16 A2981 RMK A01 T02410159  RH  060%=      5-min Rain = 0
KDO2 240604Z 32004KT 24/16 A2981 RMK A01 T02400159  RH  060%=      5-min Rain = 0
KDO2 240605Z 32004KT 24/16 A2981 RMK A01 T02390159  RH  061%=      5-min Rain = 0
KDO2 240606Z 31004KT 24/16 A2982 RMK A01 T02390159  RH  061%=      5-min Rain = 0
KDO2 240607Z 31005KT 24/16 A2982 RMK A01 T02380159  RH  061%=      5-min Rain = 0
KDO2 240608Z 31006KT 24/16 A2982 RMK A01 T02380159  RH  061%=      5-min Rain = 0
KDO2 240609Z 32007KT 24/16 A2982 RMK A01 T02370159  RH  062%=      5-min Rain = 0
KDO2 240610Z 32007KT 24/16 A2982 RMK A01 T02380159  RH  062%=      5-min Rain = 0
KDO2 240611Z 31007KT 24/16 A2982 RMK A01 T02380160  RH  061%=      5-min Rain = 0
KDO2 240612Z 31007KT 24/16 A2982 RMK A01 T02380160  RH  062%=      5-min Rain = 0
KDO2 240613Z 32006KT 24/16 A2981 RMK A01 T02370160  RH  062%=      5-min Rain = 0
KDO2 240614Z 33006KT 24/16 A2981 RMK A01 T02360161  RH  063%=      5-min Rain = 0
KDO2 240615Z 34007KT 24/16 A2981 RMK A01 T02350161  RH  063%=      5-min Rain = 0
KDO2 240616Z 35006KT 24/16 A2981 RMK A01 T02350162  RH  063%=      5-min Rain = 0
KDO2 240617Z 35006KT 24/16 A2981 RMK A01 T02360162  RH  063%=      5-min Rain = 0
KDO2 240618Z 34006KT 24/16 A2981 RMK A01 T02370163  RH  063%=      5-min Rain = 0
KDO2 240619Z 34006KT 24/16 A2981 RMK A01 T02370163  RH  063%=      5-min Rain = 0
KDO2 240620Z 34006KT 24/16 A2982 RMK A01 T02370163  RH  063%=      5-min Rain = 0
KDO2 240621Z 33006KT 24/16 A2982 RMK A01 T02370163  RH  063%=      5-min Rain = 0
KDO2 240622Z 33007KT 24/16 A2982 RMK A01 T02370164  RH  063%=      5-min Rain = 0
KDO2 240623Z 34007KT 24/16 A2982 RMK A01 T02370164  RH  064%=      5-min Rain = 0
KDO2 240624Z 33006KT 24/16 A2982 RMK A01 T02370164  RH  064%=      5-min Rain = 0
KDO2 240625Z 31005KT 24/16 A2982 RMK A01 T02370164  RH  064%=      5-min Rain = 0
KDO2 240626Z 29004KT 24/17 A2982 RMK A01 T02370165  RH  064%=      5-min Rain = 0
KDO2 240627Z 29005KT 24/17 A2981 RMK A01 T02350165  RH  064%=      5-min Rain = 0
KDO2 240628Z 30004KT 23/17 A2981 RMK A01 T02340165  RH  065%=      5-min Rain = 0
KDO2 240629Z 31003KT 23/17 A2981 RMK A01 T02330165  RH  066%=      5-min Rain = 0
KDO2 240630Z 33003KT 23/17 A2981 RMK A01 T02330165  RH  065%=      5-min Rain = 0
KDO2 240631Z 33003KT 23/17 A2981 RMK A01 T02340165  RH  065%=      5-min Rain = 0
KDO2 240632Z 32003KT 24/17 A2981 RMK A01 T02350165  RH  065%=      5-min Rain = 0
KDO2 240633Z 31003KT 24/17 A2981 RMK A01 T02360165  RH  064%=      5-min Rain = 0
KDO2 240634Z 32003KT 24/17 A2982 RMK A01 T02370166  RH  064%=      5-min Rain = 0
KDO2 240635Z 33002KT 24/17 A2982 RMK A01 T02360165  RH  064%=      5-min Rain = 0
KDO2 240636Z 32002KT 24/17 A2982 RMK A01 T02370166  RH  064%=      5-min Rain = 0
KDO2 240637Z 29002KT 24/17 A2982 RMK A01 T02360165  RH  064%=      5-min Rain = 0
KDO2 240638Z 24003KT 24/17 A2982 RMK A01 T02360167  RH  065%=      5-min Rain = 0
KDO2 240639Z 23005KT 23/17 A2982 RMK A01 T02340168  RH  066%=      5-min Rain = 0
KDO2 240640Z 25003KT 23/17 A2982 RMK A01 T02330168  RH  067%=      5-min Rain = 0
KDO2 240641Z 30003KT 23/17 A2982 RMK A01 T02320168  RH  067%=      5-min Rain = 0
KDO2 240642Z 32003KT 23/17 A2982 RMK A01 T02330168  RH  067%=      5-min Rain = 0
KDO2 240643Z 33003KT 23/17 A2982 RMK A01 T02330168  RH  066%=      5-min Rain = 0
KDO2 240644Z 34003KT 23/17 A2982 RMK A01 T02340168  RH  066%=      5-min Rain = 0
KDO2 240645Z 34003KT 24/17 A2982 RMK A01 T02350168  RH  066%=      5-min Rain = 0
KDO2 240646Z 33004KT 23/17 A2982 RMK A01 T02340167  RH  066%=      5-min Rain = 0
KDO2 240647Z 30004KT 23/17 A2983 RMK A01 T02340167  RH  066%=      5-min Rain = 0
KDO2 240648Z 30004KT 23/17 A2983 RMK A01 T02340167  RH  066%=      5-min Rain = 0
KDO2 240649Z 31004KT 23/17 A2983 RMK A01 T02330168  RH  067%=      5-min Rain = 0
KDO2 240650Z 31003KT 23/17 A2983 RMK A01 T02330169  RH  067%=      5-min Rain = 0
KDO2 240651Z 32003KT 23/17 A2983 RMK A01 T02330168  RH  067%=      5-min Rain = 0
KDO2 240652Z 33003KT 23/17 A2983 RMK A01 T02330169  RH  067%=      5-min Rain = 0
KDO2 240653Z 33002KT 23/17 A2983 RMK A01 T02330169  RH  067%=      5-min Rain = 0
KDO2 240654Z 35002KT 23/17 A2983 RMK A01 T02330169  RH  067%=      5-min Rain = 0
KDO2 240655Z 34002KT 24/17 A2983 RMK A01 T02350171  RH  067%=      5-min Rain = 0
KDO2 240656Z 33002KT 24/17 A2983 RMK A01 T02360171  RH  067%=      5-min Rain = 0
KDO2 240657Z 33002KT 24/17 A2983 RMK A01 T02370171  RH  066%=      5-min Rain = 0
KDO2 240658Z 31002KT 24/17 A2983 RMK A01 T02370171  RH  066%=      5-min Rain = 0
KDO2 240659Z 26003KT 24/17 A2983 RMK A01 T02360171  RH  067%=      5-min Rain = 0
KDO2 240700Z 25004KT 23/17 A2983 RMK A01 T02330170  RH  068%=      5-min Rain = 0
KDO2 240701Z 26004KT 23/17 A2982 RMK A01 T02320170  RH  068%=      5-min Rain = 0
KDO2 240702Z 27004KT 23/17 A2982 RMK A01 T02320171  RH  069%=      5-min Rain = 0
KDO2 240703Z 27004KT 23/17 A2983 RMK A01 T02330172  RH  068%=      5-min Rain = 0
KDO2 240704Z 26005KT 23/17 A2983 RMK A01 T02330171  RH  068%=      5-min Rain = 0
KDO2 240705Z 24008KT 23/17 A2983 RMK A01 T02320171  RH  069%=      5-min Rain = 0
KDO2 240706Z 24006KT 23/17 A2983 RMK A01 T02320170  RH  068%=      5-min Rain = 0
KDO2 240707Z 24004KT 23/17 A2983 RMK A01 T02310170  RH  068%=      5-min Rain = 0
KDO2 240708Z 25003KT 23/17 A2983 RMK A01 T02310170  RH  069%=      5-min Rain = 0
KDO2 240709Z 27002KT 23/17 A2983 RMK A01 T02300170  RH  069%=      5-min Rain = 0
KDO2 240710Z 26006KT 23/17 A2983 RMK A01 T02290170  RH  069%=      5-min Rain = 0
KDO2 240711Z 25007KT 23/17 A2983 RMK A01 T02290170  RH  070%=      5-min Rain = 0
KDO2 240712Z 26006KT 23/17 A2984 RMK A01 T02280170  RH  070%=      5-min Rain = 0
KDO2 240713Z 26007KT 23/17 A2984 RMK A01 T02270169  RH  070%=      5-min Rain = 0
KDO2 240714Z 27006KT 23/17 A2984 RMK A01 T02250168  RH  070%=      5-min Rain = 0
KDO2 240715Z 27007KT 22/17 A2984 RMK A01 T02230167  RH  071%=      5-min Rain = 0
KDO2 240716Z 26005KT 22/17 A2984 RMK A01 T02220167  RH  071%=      5-min Rain = 0
KDO2 240717Z 25005KT 22/17 A2984 RMK A01 T02220167  RH  071%=      5-min Rain = 0
KDO2 240718Z 25005KT 22/17 A2984 RMK A01 T02220166  RH  071%=      5-min Rain = 0
KDO2 240719Z 25005KT 22/17 A2984 RMK A01 T02230166  RH  070%=      5-min Rain = 0
KDO2 240720Z 25005KT 22/17 A2984 RMK A01 T02230166  RH  070%=      5-min Rain = 0
KDO2 240721Z 25005KT 22/17 A2984 RMK A01 T02230166  RH  070%=      5-min Rain = 0
KDO2 240722Z 26007KT 22/17 A2984 RMK A01 T02220166  RH  070%=      5-min Rain = 0
KDO2 240723Z 27007KT 22/17 A2984 RMK A01 T02220166  RH  071%=      5-min Rain = 0
KDO2 240724Z 26007KT 22/17 A2984 RMK A01 T02220166  RH  071%=      5-min Rain = 0
KDO2 240725Z 26007KT 22/17 A2984 RMK A01 T02210166  RH  071%=      5-min Rain = 0
KDO2 240726Z 26007KT 22/17 A2984 RMK A01 T02200166  RH  072%=      5-min Rain = 0
KDO2 240727Z 26008KT 22/17 A2984 RMK A01 T02190165  RH  071%=      5-min Rain = 0
KDO2 240728Z 26007KT 22/17 A2984 RMK A01 T02190165  RH  071%=      5-min Rain = 0
KDO2 240729Z 26007KT 22/16 A2984 RMK A01 T02190164  RH  071%=      5-min Rain = 0
KDO2 240730Z 24006KT 22/16 A2984 RMK A01 T02200164  RH  070%=      5-min Rain = 0
KDO2 240731Z 23007KT 22/16 A2984 RMK A01 T02210164  RH  070%=      5-min Rain = 0
KDO2 240732Z 22009KT 22/16 A2983 RMK A01 T02210164  RH  070%=      5-min Rain = 0
KDO2 240733Z 21009KT 22/16 A2983 RMK A01 T02190162  RH  070%=      5-min Rain = 0
KDO2 240734Z 21008KT 22/16 A2983 RMK A01 T02190162  RH  070%=      5-min Rain = 0
KDO2 240735Z 22007KT 22/16 A2983 RMK A01 T02180162  RH  070%=      5-min Rain = 0
KDO2 240736Z 23006KT 22/16 A2983 RMK A01 T02180162  RH  070%=      5-min Rain = 0
KDO2 240737Z 24005KT 22/16 A2982 RMK A01 T02180161  RH  070%=      5-min Rain = 0
KDO2 240738Z 24005KT 22/16 A2982 RMK A01 T02180161  RH  070%=      5-min Rain = 0
KDO2 240739Z 25005KT 22/16 A2982 RMK A01 T02180161  RH  070%=      5-min Rain = 0
KDO2 240740Z 26004KT 22/16 A2982 RMK A01 T02170162  RH  071%=      5-min Rain = 0
KDO2 240741Z 27003KT 22/16 A2982 RMK A01 T02170161  RH  071%=      5-min Rain = 0
KDO2 240742Z 27003KT 22/16 A2982 RMK A01 T02170161  RH  071%=      5-min Rain = 0
KDO2 240743Z 29004KT 22/16 A2982 RMK A01 T02170161  RH  071%=      5-min Rain = 0
KDO2 240744Z 31004KT 22/16 A2982 RMK A01 T02170161  RH  070%=      5-min Rain = 0
KDO2 240745Z 32005KT 22/16 A2982 RMK A01 T02160160  RH  071%=      5-min Rain = 0
KDO2 240746Z 32005KT 22/16 A2982 RMK A01 T02160160  RH  071%=      5-min Rain = 0
KDO2 240747Z 32006KT 22/16 A2982 RMK A01 T02150161  RH  071%=      5-min Rain = 0
KDO2 240748Z 31006KT 21/16 A2982 RMK A01 T02140162  RH  072%=      5-min Rain = 0
KDO2 240749Z 31006KT 21/16 A2982 RMK A01 T02140162  RH  072%=      5-min Rain = 0
KDO2 240750Z 31006KT 21/16 A2982 RMK A01 T02140162  RH  072%=      5-min Rain = 0
KDO2 240751Z 31006KT 21/16 A2982 RMK A01 T02130162  RH  073%=      5-min Rain = 0
KDO2 240752Z 31006KT 21/16 A2982 RMK A01 T02130162  RH  073%=      5-min Rain = 0
KDO2 240753Z 30005KT 21/16 A2982 RMK A01 T02130162  RH  072%=      5-min Rain = 0
KDO2 240754Z 30004KT 21/16 A2981 RMK A01 T02130162  RH  072%=      5-min Rain = 0
KDO2 240755Z 31004KT 21/16 A2981 RMK A01 T02130162  RH  073%=      5-min Rain = 0
KDO2 240756Z 30004KT 21/16 A2981 RMK A01 T02120162  RH  073%=      5-min Rain = 0
KDO2 240757Z 29004KT 21/16 A2981 RMK A01 T02120162  RH  073%=      5-min Rain = 0
KDO2 240758Z 27004KT 21/16 A2981 RMK A01 T02110163  RH  074%=      5-min Rain = 0
KDO2 240759Z 28006KT 21/16 A2981 RMK A01 T02100164  RH  075%=      5-min Rain = 0
KDO2 240800Z 30006KT 21/16 A2981 RMK A01 T02090164  RH  075%=      5-min Rain = 0
KDO2 240801Z 30006KT 21/16 A2981 RMK A01 T02080163  RH  076%=      5-min Rain = 0
KDO2 240802Z 31005KT 21/16 A2981 RMK A01 T02080164  RH  076%=      5-min Rain = 0
KDO2 240803Z 33007KT 21/17 A2981 RMK A01 T02100165  RH  075%=      5-min Rain = 0
KDO2 240804Z 32007KT 21/17 A2981 RMK A01 T02120166  RH  075%=      5-min Rain = 0
KDO2 240805Z 30006KT 21/17 A2981 RMK A01 T02130165  RH  074%=      5-min Rain = 0
KDO2 240806Z 31006KT 21/16 A2982 RMK A01 T02130164  RH  073%=      5-min Rain = 0
KDO2 240807Z 31007KT 21/16 A2982 RMK A01 T02120164  RH  074%=      5-min Rain = 0
KDO2 240808Z 31007KT 21/17 A2982 RMK A01 T02120165  RH  075%=      5-min Rain = 0
KDO2 240809Z 31007KT 22/17 A2982 RMK A01 T02150167  RH  074%=      5-min Rain = 0
KDO2 240810Z 31007KT 22/17 A2982 RMK A01 T02160167  RH  073%=      5-min Rain = 0
KDO2 240811Z 31007KT 22/17 A2982 RMK A01 T02160166  RH  073%=      5-min Rain = 0
KDO2 240812Z 32007KT 22/17 A2982 RMK A01 T02150166  RH  074%=      5-min Rain = 0
KDO2 240813Z 33008KT 21/17 A2981 RMK A01 T02140167  RH  074%=      5-min Rain = 0
KDO2 240814Z 34007KT 21/17 A2981 RMK A01 T02140168  RH  075%=      5-min Rain = 0
KDO2 240815Z 34008KT 21/17 A2981 RMK A01 T02130170  RH  076%=      5-min Rain = 0
KDO2 240816Z 34007KT 21/17 A2981 RMK A01 T02140171  RH  077%=      5-min Rain = 0
KDO2 240817Z 34005KT 22/17 A2981 RMK A01 T02150171  RH  076%=      5-min Rain = 0
KDO2 240818Z 35004KT 22/17 A2981 RMK A01 T02150171  RH  076%=      5-min Rain = 0
KDO2 240819Z 35004KT 22/17 A2981 RMK A01 T02150171  RH  076%=      5-min Rain = 0
KDO2 240820Z 34003KT 21/17 A2981 RMK A01 T02140171  RH  076%=      5-min Rain = 0
KDO2 240821Z 33004KT 21/17 A2981 RMK A01 T02140171  RH  076%=      5-min Rain = 0
KDO2 240822Z 32004KT 21/17 A2981 RMK A01 T02140171  RH  077%=      5-min Rain = 0
KDO2 240823Z 31004KT 21/17 A2981 RMK A01 T02130170  RH  076%=      5-min Rain = 0
KDO2 240824Z 31004KT 21/17 A2981 RMK A01 T02120169  RH  076%=      5-min Rain = 0
KDO2 240825Z 31005KT 21/17 A2981 RMK A01 T02110169  RH  077%=      5-min Rain = 0
KDO2 240826Z 31006KT 21/17 A2981 RMK A01 T02100168  RH  077%=      5-min Rain = 0
KDO2 240827Z 30005KT 21/17 A2981 RMK A01 T02090168  RH  077%=      5-min Rain = 0
KDO2 240828Z 30005KT 21/17 A2981 RMK A01 T02080168  RH  078%=      5-min Rain = 0
KDO2 240829Z 31005KT 21/17 A2981 RMK A01 T02080168  RH  078%=      5-min Rain = 0
KDO2 240830Z 32006KT 21/17 A2981 RMK A01 T02080170  RH  079%=      5-min Rain = 0
KDO2 240831Z 32007KT 21/17 A2981 RMK A01 T02080170  RH  079%=      5-min Rain = 0
KDO2 240832Z 33006KT 21/17 A2981 RMK A01 T02090172  RH  079%=      5-min Rain = 0
KDO2 240833Z 34006KT 21/17 A2981 RMK A01 T02090171  RH  079%=      5-min Rain = 0
KDO2 240834Z 35006KT 21/17 A2981 RMK A01 T02100172  RH  079%=      5-min Rain = 0
KDO2 240835Z 35006KT 21/17 A2981 RMK A01 T02100172  RH  078%=      5-min Rain = 0
KDO2 240836Z 36006KT 21/17 A2981 RMK A01 T02100171  RH  078%=      5-min Rain = 0
KDO2 240837Z 36004KT 21/17 A2981 RMK A01 T02100171  RH  078%=      5-min Rain = 0
KDO2 240838Z 36003KT 21/17 A2981 RMK A01 T02100171  RH  078%=      5-min Rain = 0
KDO2 240839Z 35003KT 21/17 A2981 RMK A01 T02100171  RH  078%=      5-min Rain = 0
KDO2 240840Z 35004KT 21/17 A2981 RMK A01 T02090171  RH  078%=      5-min Rain = 0
KDO2 240841Z 35004KT 21/17 A2981 RMK A01 T02090171  RH  078%=      5-min Rain = 0
KDO2 240842Z 34004KT 21/17 A2981 RMK A01 T02090170  RH  078%=      5-min Rain = 0
KDO2 240843Z 34004KT 21/17 A2981 RMK A01 T02090170  RH  078%=      5-min Rain = 0
KDO2 240844Z 35005KT 21/17 A2981 RMK A01 T02080169  RH  078%=      5-min Rain = 0
KDO2 240845Z 36004KT 21/17 A2981 RMK A01 T02080169  RH  079%=      5-min Rain = 0
KDO2 240846Z 00004KT 21/17 A2981 RMK A01 T02080169  RH  079%=      5-min Rain = 0
KDO2 240847Z 00005KT 21/17 A2981 RMK A01 T02080169  RH  079%=      5-min Rain = 0
KDO2 240848Z 36004KT 21/17 A2981 RMK A01 T02080169  RH  079%=      5-min Rain = 0
KDO2 240849Z 35004KT 21/17 A2981 RMK A01 T02080169  RH  079%=      5-min Rain = 0
KDO2 240850Z 35004KT 21/17 A2981 RMK A01 T02080169  RH  079%=      5-min Rain = 0
KDO2 240851Z 35004KT 21/17 A2982 RMK A01 T02070169  RH  079%=      5-min Rain = 0
KDO2 240852Z 36004KT 21/17 A2982 RMK A01 T02070169  RH  079%=      5-min Rain = 0
KDO2 240853Z 01004KT 21/17 A2982 RMK A01 T02070169  RH  079%=      5-min Rain = 0
KDO2 240854Z 01004KT 21/17 A2982 RMK A01 T02070169  RH  079%=      5-min Rain = 0
KDO2 240855Z 01002KT 21/17 A2982 RMK A01 T02070169  RH  079%=      5-min Rain = 0
KDO2 240856Z 00001KT 21/17 A2983 RMK A01 T02060168  RH  079%=      5-min Rain = 0
KDO2 240857Z 36001KT 21/17 A2983 RMK A01 T02060169  RH  079%=      5-min Rain = 0
KDO2 240858Z 35001KT 21/17 A2983 RMK A01 T02060169  RH  079%=      5-min Rain = 0
KDO2 240859Z 32000KT 21/17 A2983 RMK A01 T02050168  RH  079%=      5-min Rain = 0
KDO2 240900Z 00000KT 21/17 A2983 RMK A01 T02050169  RH  079%=      5-min Rain = 0
KDO2 240901Z 35000KT 21/17 A2983 RMK A01 T02050169  RH  079%=      5-min Rain = 0
KDO2 240902Z 00001KT 21/17 A2983 RMK A01 T02050168  RH  080%=      5-min Rain = 0
KDO2 240903Z 01000KT 21/17 A2983 RMK A01 T02050168  RH  080%=      5-min Rain = 0
KDO2 240904Z 00000KT 20/17 A2984 RMK A01 T02040168  RH  080%=      5-min Rain = 0
KDO2 240905Z 00000KT 20/17 A2984 RMK A01 T02040169  RH  080%=      5-min Rain = 0
KDO2 240906Z 00000KT 20/17 A2984 RMK A01 T02040169  RH  080%=      5-min Rain = 0
KDO2 240907Z 28000KT 20/17 A2984 RMK A01 T02030169  RH  081%=      5-min Rain = 0
KDO2 240908Z 29001KT 20/17 A2983 RMK A01 T02020169  RH  081%=      5-min Rain = 0
KDO2 240909Z 32001KT 20/17 A2983 RMK A01 T02020169  RH  081%=      5-min Rain = 0
KDO2 240910Z 36001KT 20/17 A2983 RMK A01 T02020169  RH  081%=      5-min Rain = 0
KDO2 240911Z 02001KT 20/17 A2984 RMK A01 T02020168  RH  081%=      5-min Rain = 0
KDO2 240912Z 02001KT 20/17 A2984 RMK A01 T02020168  RH  081%=      5-min Rain = 0
KDO2 240913Z 05000KT 20/17 A2984 RMK A01 T02020169  RH  082%=      5-min Rain = 0
KDO2 240914Z 00000KT 20/17 A2984 RMK A01 T02010169  RH  082%=      5-min Rain = 0
KDO2 240915Z 01000KT 20/17 A2984 RMK A01 T02010169  RH  082%=      5-min Rain = 0
KDO2 240916Z 02002KT 20/17 A2983 RMK A01 T02010169  RH  082%=      5-min Rain = 0
KDO2 240917Z 03001KT 20/17 A2983 RMK A01 T02010169  RH  082%=      5-min Rain = 0
KDO2 240918Z 05001KT 20/17 A2983 RMK A01 T02010169  RH  082%=      5-min Rain = 0
KDO2 240919Z 08001KT 20/17 A2984 RMK A01 T02010168  RH  081%=      5-min Rain = 0
KDO2 240920Z 06001KT 20/17 A2983 RMK A01 T02020168  RH  081%=      5-min Rain = 0
KDO2 240921Z 05001KT 20/17 A2983 RMK A01 T02020169  RH  081%=      5-min Rain = 0
KDO2 240922Z 08001KT 20/17 A2984 RMK A01 T02020168  RH  081%=      5-min Rain = 0
KDO2 240923Z 09002KT 20/17 A2984 RMK A01 T02020168  RH  081%=      5-min Rain = 0
KDO2 240924Z 10002KT 20/17 A2984 RMK A01 T02020168  RH  081%=      5-min Rain = 0
KDO2 240925Z 08002KT 20/17 A2984 RMK A01 T02010168  RH  081%=      5-min Rain = 0
KDO2 240926Z 07001KT 20/17 A2984 RMK A01 T02000168  RH  082%=      5-min Rain = 0
KDO2 240927Z 10001KT 20/17 A2984 RMK A01 T02000168  RH  082%=      5-min Rain = 0
KDO2 240928Z 12002KT 20/17 A2984 RMK A01 T02000169  RH  082%=      5-min Rain = 0
KDO2 240929Z 13002KT 20/17 A2984 RMK A01 T02000169  RH  082%=      5-min Rain = 0
KDO2 240930Z 14003KT 20/17 A2984 RMK A01 T01990169  RH  083%=      5-min Rain = 0
KDO2 240931Z 14004KT 20/17 A2984 RMK A01 T01980169  RH  083%=      5-min Rain = 0
KDO2 240932Z 12003KT 20/17 A2984 RMK A01 T01970170  RH  084%=      5-min Rain = 0
KDO2 240933Z 10003KT 20/17 A2984 RMK A01 T01960170  RH  085%=      5-min Rain = 0
KDO2 240934Z 08004KT 20/17 A2984 RMK A01 T01960169  RH  085%=      5-min Rain = 0
KDO2 240935Z 07004KT 20/17 A2983 RMK A01 T01960169  RH  085%=      5-min Rain = 0
KDO2 240936Z 06004KT 20/17 A2983 RMK A01 T01960168  RH  084%=      5-min Rain = 0
KDO2 240937Z 05004KT 20/17 A2983 RMK A01 T01960167  RH  083%=      5-min Rain = 0
KDO2 240938Z 05004KT 20/17 A2983 RMK A01 T01960166  RH  083%=      5-min Rain = 0
KDO2 240939Z 05004KT 20/17 A2983 RMK A01 T01960165  RH  083%=      5-min Rain = 0
KDO2 240940Z 06004KT 20/17 A2983 RMK A01 T01960165  RH  082%=      5-min Rain = 0
KDO2 240941Z 07004KT 20/17 A2983 RMK A01 T01960165  RH  082%=      5-min Rain = 0
KDO2 240942Z 08004KT 20/17 A2983 RMK A01 T01960165  RH  082%=      5-min Rain = 0
KDO2 240943Z 07004KT 20/17 A2983 RMK A01 T01950165  RH  083%=      5-min Rain = 0
KDO2 240944Z 06004KT 19/17 A2983 RMK A01 T01940166  RH  084%=      5-min Rain = 0
KDO2 240945Z 06005KT 19/17 A2983 RMK A01 T01940166  RH  084%=      5-min Rain = 0
KDO2 240946Z 07005KT 19/17 A2983 RMK A01 T01940166  RH  084%=      5-min Rain = 0
KDO2 240947Z 08005KT 19/17 A2983 RMK A01 T01940166  RH  084%=      5-min Rain = 0
KDO2 240948Z 08004KT 19/17 A2983 RMK A01 T01940166  RH  084%=      5-min Rain = 0
KDO2 240949Z 07004KT 19/17 A2983 RMK A01 T01930167  RH  085%=      5-min Rain = 0
KDO2 240950Z 05003KT 19/17 A2983 RMK A01 T01920167  RH  085%=      5-min Rain = 0
KDO2 240951Z 03002KT 19/17 A2983 RMK A01 T01920167  RH  085%=      5-min Rain = 0
KDO2 240952Z 04002KT 19/17 A2983 RMK A01 T01920166  RH  085%=      5-min Rain = 0
KDO2 240953Z 05003KT 19/17 A2983 RMK A01 T01920167  RH  085%=      5-min Rain = 0
KDO2 240954Z 05004KT 19/17 A2983 RMK A01 T01920166  RH  085%=      5-min Rain = 0
KDO2 240955Z 05004KT 19/17 A2983 RMK A01 T01920165  RH  084%=      5-min Rain = 0
KDO2 240956Z 06003KT 19/17 A2983 RMK A01 T01920165  RH  084%=      5-min Rain = 0
KDO2 240957Z 06003KT 19/16 A2983 RMK A01 T01920164  RH  084%=      5-min Rain = 0
KDO2 240958Z 05002KT 19/16 A2983 RMK A01 T01920164  RH  084%=      5-min Rain = 0
KDO2 240959Z 05002KT 19/16 A2983 RMK A01 T01920164  RH  084%=      5-min Rain = 0
KDO2 241000Z 04002KT 19/17 A2983 RMK A01 T01930165  RH  084%=      5-min Rain = 0
KDO2 241001Z 04002KT 19/17 A2983 RMK A01 T01920165  RH  084%=      5-min Rain = 0
KDO2 241002Z 03003KT 19/17 A2983 RMK A01 T01930165  RH  084%=      5-min Rain = 0
KDO2 241003Z 03003KT 19/17 A2983 RMK A01 T01930165  RH  084%=      5-min Rain = 0
KDO2 241004Z 02003KT 19/16 A2982 RMK A01 T01920163  RH  083%=      5-min Rain = 0
KDO2 241005Z 02004KT 19/16 A2982 RMK A01 T01920162  RH  083%=      5-min Rain = 0
KDO2 241006Z 03004KT 19/16 A2982 RMK A01 T01920163  RH  083%=      5-min Rain = 0
KDO2 241007Z 03004KT 19/16 A2982 RMK A01 T01920163  RH  084%=      5-min Rain = 0
KDO2 241008Z 02003KT 19/16 A2982 RMK A01 T01920163  RH  083%=      5-min Rain = 0
KDO2 241009Z 02002KT 19/16 A2982 RMK A01 T01910162  RH  083%=      5-min Rain = 0
KDO2 241010Z 01001KT 19/16 A2982 RMK A01 T01910161  RH  083%=      5-min Rain = 0
KDO2 241011Z 02001KT 19/16 A2982 RMK A01 T01900159  RH  082%=      5-min Rain = 0
KDO2 241012Z 06001KT 19/16 A2982 RMK A01 T01890158  RH  082%=      5-min Rain = 0
KDO2 241013Z 06001KT 19/16 A2982 RMK A01 T01890159  RH  083%=      5-min Rain = 0
KDO2 241014Z 06001KT 19/16 A2982 RMK A01 T01880159  RH  083%=      5-min Rain = 0
KDO2 241015Z 05000KT 19/16 A2982 RMK A01 T01880160  RH  084%=      5-min Rain = 0
KDO2 241016Z 04000KT 19/16 A2982 RMK A01 T01880160  RH  084%=      5-min Rain = 0
KDO2 241017Z 00000KT 19/16 A2982 RMK A01 T01870161  RH  084%=      5-min Rain = 0
KDO2 241018Z 01000KT 19/16 A2982 RMK A01 T01870161  RH  085%=      5-min Rain = 0
KDO2 241019Z 02000KT 19/16 A2982 RMK A01 T01870161  RH  085%=      5-min Rain = 0
KDO2 241020Z 03001KT 19/16 A2982 RMK A01 T01880162  RH  085%=      5-min Rain = 0
KDO2 241021Z 02001KT 19/16 A2982 RMK A01 T01880162  RH  085%=      5-min Rain = 0
KDO2 241022Z 02002KT 19/16 A2982 RMK A01 T01890163  RH  085%=      5-min Rain = 0
KDO2 241023Z 03002KT 19/16 A2982 RMK A01 T01880162  RH  085%=      5-min Rain = 0
KDO2 241024Z 03002KT 19/16 A2982 RMK A01 T01880162  RH  085%=      5-min Rain = 0
KDO2 241025Z 03002KT 19/16 A2982 RMK A01 T01880162  RH  085%=      5-min Rain = 0
KDO2 241026Z 03001KT 19/16 A2982 RMK A01 T01870161  RH  085%=      5-min Rain = 0
KDO2 241027Z 00000KT 19/16 A2982 RMK A01 T01870160  RH  085%=      5-min Rain = 0
KDO2 241028Z 28001KT 19/16 A2983 RMK A01 T01860160  RH  085%=      5-min Rain = 0
KDO2 241029Z 26002KT 18/16 A2983 RMK A01 T01840160  RH  086%=      5-min Rain = 0
KDO2 241030Z 26002KT 18/16 A2983 RMK A01 T01840161  RH  087%=      5-min Rain = 0
KDO2 241031Z 26002KT 18/16 A2983 RMK A01 T01830162  RH  088%=      5-min Rain = 0
KDO2 241032Z 26002KT 18/16 A2983 RMK A01 T01830163  RH  088%=      5-min Rain = 0
KDO2 241033Z 26002KT 18/16 A2983 RMK A01 T01820162  RH  088%=      5-min Rain = 0
KDO2 241034Z 26002KT 18/16 A2983 RMK A01 T01820162  RH  089%=      5-min Rain = 0
KDO2 241035Z 26001KT 18/16 A2983 RMK A01 T01810162  RH  089%=      5-min Rain = 0
KDO2 241036Z 25001KT 18/16 A2983 RMK A01 T01810163  RH  089%=      5-min Rain = 0
KDO2 241037Z 22002KT 18/16 A2983 RMK A01 T01820163  RH  089%=      5-min Rain = 0
KDO2 241038Z 21002KT 18/16 A2983 RMK A01 T01820162  RH  088%=      5-min Rain = 0
KDO2 241039Z 20002KT 18/16 A2983 RMK A01 T01810162  RH  088%=      5-min Rain = 0
KDO2 241040Z 20002KT 18/16 A2983 RMK A01 T01810162  RH  089%=      5-min Rain = 0
KDO2 241041Z 20002KT 18/16 A2983 RMK A01 T01810162  RH  089%=      5-min Rain = 0
KDO2 241042Z 20002KT 18/16 A2983 RMK A01 T01800162  RH  089%=      5-min Rain = 0
KDO2 241043Z 20003KT 18/16 A2983 RMK A01 T01800161  RH  089%=      5-min Rain = 0
KDO2 241044Z 21003KT 18/16 A2983 RMK A01 T01790161  RH  089%=      5-min Rain = 0
KDO2 241045Z 21003KT 18/16 A2983 RMK A01 T01790161  RH  089%=      5-min Rain = 0
KDO2 241046Z 21004KT 18/16 A2984 RMK A01 T01790161  RH  090%=      5-min Rain = 0
KDO2 241047Z 20004KT 18/16 A2984 RMK A01 T01780162  RH  090%=      5-min Rain = 0
KDO2 241048Z 20004KT 18/16 A2984 RMK A01 T01780162  RH  090%=      5-min Rain = 0
KDO2 241049Z 20005KT 18/16 A2984 RMK A01 T01790162  RH  090%=      5-min Rain = 0
KDO2 241050Z 20005KT 18/16 A2984 RMK A01 T01790163  RH  090%=      5-min Rain = 0
KDO2 241051Z 20005KT 18/16 A2984 RMK A01 T01800163  RH  090%=      5-min Rain = 0
KDO2 241052Z 20005KT 18/16 A2984 RMK A01 T01810164  RH  090%=      5-min Rain = 0
KDO2 241053Z 20004KT 18/16 A2984 RMK A01 T01810163  RH  089%=      5-min Rain = 0
KDO2 241054Z 21004KT 18/16 A2984 RMK A01 T01810163  RH  089%=      5-min Rain = 0
KDO2 241055Z 22004KT 18/16 A2984 RMK A01 T01810162  RH  089%=      5-min Rain = 0
KDO2 241056Z 22004KT 18/16 A2984 RMK A01 T01800162  RH  089%=      5-min Rain = 0
KDO2 241057Z 21003KT 18/16 A2984 RMK A01 T01790161  RH  089%=      5-min Rain = 0
KDO2 241058Z 19002KT 18/16 A2984 RMK A01 T01790161  RH  089%=      5-min Rain = 0
KDO2 241059Z 20002KT 18/16 A2984 RMK A01 T01780161  RH  090%=      5-min Rain = 0
KDO2 241100Z 21003KT 18/16 A2984 RMK A01 T01780161  RH  090%=      5-min Rain = 0
KDO2 241101Z 21003KT 18/16 A2984 RMK A01 T01770161  RH  090%=      5-min Rain = 0
KDO2 241102Z 21003KT 18/16 A2984 RMK A01 T01770161  RH  090%=      5-min Rain = 0
KDO2 241103Z 20003KT 18/16 A2984 RMK A01 T01760161  RH  091%=      5-min Rain = 0
KDO2 241104Z 20003KT 18/16 A2984 RMK A01 T01760161  RH  091%=      5-min Rain = 0
KDO2 241105Z 19002KT 18/16 A2984 RMK A01 T01760161  RH  091%=      5-min Rain = 0
KDO2 241106Z 20003KT 18/16 A2984 RMK A01 T01760162  RH  091%=      5-min Rain = 0
KDO2 241107Z 19004KT 18/16 A2985 RMK A01 T01760162  RH  092%=      5-min Rain = 0
KDO2 241108Z 19004KT 18/16 A2985 RMK A01 T01750161  RH  092%=      5-min Rain = 0
KDO2 241109Z 19004KT 18/16 A2985 RMK A01 T01750161  RH  092%=      5-min Rain = 0
KDO2 241110Z 18004KT 17/16 A2985 RMK A01 T01740160  RH  091%=      5-min Rain = 0
KDO2 241111Z 18004KT 17/16 A2985 RMK A01 T01740160  RH  091%=      5-min Rain = 0
KDO2 241112Z 18004KT 17/16 A2984 RMK A01 T01740160  RH  092%=      5-min Rain = 0
KDO2 241113Z 18004KT 17/16 A2984 RMK A01 T01740160  RH  092%=      5-min Rain = 0
KDO2 241114Z 18004KT 17/16 A2984 RMK A01 T01740161  RH  092%=      5-min Rain = 0
KDO2 241115Z 18004KT 17/16 A2984 RMK A01 T01730160  RH  092%=      5-min Rain = 0
KDO2 241116Z 18004KT 17/16 A2984 RMK A01 T01730160  RH  092%=      5-min Rain = 0
KDO2 241117Z 18003KT 17/16 A2984 RMK A01 T01730161  RH  092%=      5-min Rain = 0
KDO2 241118Z 18003KT 17/16 A2984 RMK A01 T01730161  RH  092%=      5-min Rain = 0
KDO2 241119Z 17003KT 17/16 A2985 RMK A01 T01730161  RH  092%=      5-min Rain = 0
KDO2 241120Z 17002KT 17/16 A2985 RMK A01 T01730160  RH  092%=      5-min Rain = 0
KDO2 241121Z 16002KT 17/16 A2985 RMK A01 T01730160  RH  092%=      5-min Rain = 0
KDO2 241122Z 18002KT 17/16 A2985 RMK A01 T01730160  RH  092%=      5-min Rain = 0
KDO2 241123Z 18002KT 17/16 A2985 RMK A01 T01720160  RH  092%=      5-min Rain = 0
KDO2 241124Z 18002KT 17/16 A2985 RMK A01 T01720160  RH  092%=      5-min Rain = 0
KDO2 241125Z 19002KT 17/16 A2985 RMK A01 T01720160  RH  092%=      5-min Rain = 0
KDO2 241126Z 20003KT 17/16 A2985 RMK A01 T01720160  RH  092%=      5-min Rain = 0
KDO2 241127Z 20003KT 17/16 A2985 RMK A01 T01720160  RH  092%=      5-min Rain = 0
KDO2 241128Z 21003KT 17/16 A2985 RMK A01 T01720160  RH  092%=      5-min Rain = 0
KDO2 241129Z 21003KT 17/16 A2985 RMK A01 T01730160  RH  092%=      5-min Rain = 0
KDO2 241130Z 21003KT 17/16 A2985 RMK A01 T01720160  RH  092%=      5-min Rain = 0
KDO2 241131Z 20002KT 17/16 A2984 RMK A01 T01720160  RH  092%=      5-min Rain = 0
KDO2 241132Z 20002KT 17/16 A2985 RMK A01 T01720160  RH  092%=      5-min Rain = 0
KDO2 241133Z 19002KT 17/16 A2985 RMK A01 T01720160  RH  092%=      5-min Rain = 0
KDO2 241134Z 18002KT 17/16 A2985 RMK A01 T01720160  RH  092%=      5-min Rain = 0
KDO2 241135Z 15002KT 17/16 A2985 RMK A01 T01720160  RH  092%=      5-min Rain = 0
KDO2 241136Z 15002KT 17/16 A2985 RMK A01 T01720159  RH  092%=      5-min Rain = 0
KDO2 241137Z 16002KT 17/16 A2985 RMK A01 T01720159  RH  092%=      5-min Rain = 0
KDO2 241138Z 16001KT 17/16 A2985 RMK A01 T01720159  RH  092%=      5-min Rain = 0
KDO2 241139Z 16001KT 17/16 A2985 RMK A01 T01720158  RH  091%=      5-min Rain = 0
KDO2 241140Z 16001KT 17/16 A2985 RMK A01 T01720158  RH  091%=      5-min Rain = 0
KDO2 241141Z 13001KT 17/16 A2985 RMK A01 T01720158  RH  091%=      5-min Rain = 0
KDO2 241142Z 12001KT 17/16 A2985 RMK A01 T01720158  RH  091%=      5-min Rain = 0
KDO2 241143Z 12001KT 17/16 A2985 RMK A01 T01720158  RH  091%=      5-min Rain = 0
KDO2 241144Z 13002KT 17/16 A2985 RMK A01 T01730159  RH  091%=      5-min Rain = 0
KDO2 241145Z 15002KT 17/16 A2985 RMK A01 T01730158  RH  091%=      5-min Rain = 0
KDO2 241146Z 16002KT 17/16 A2985 RMK A01 T01730158  RH  091%=      5-min Rain = 0
KDO2 241147Z 16002KT 17/16 A2985 RMK A01 T01730158  RH  091%=      5-min Rain = 0
KDO2 241148Z 14002KT 17/16 A2985 RMK A01 T01730158  RH  091%=      5-min Rain = 0
KDO2 241149Z 14003KT 17/16 A2985 RMK A01 T01730158  RH  091%=      5-min Rain = 0
KDO2 241150Z 14003KT 17/16 A2985 RMK A01 T01730159  RH  091%=      5-min Rain = 0
KDO2 241151Z 15003KT 17/16 A2985 RMK A01 T01730159  RH  091%=      5-min Rain = 0
KDO2 241152Z 15004KT 17/16 A2985 RMK A01 T01730159  RH  091%=      5-min Rain = 0
KDO2 241153Z 15003KT 17/16 A2985 RMK A01 T01730159  RH  091%=      5-min Rain = 0
KDO2 241154Z 15003KT 17/16 A2985 RMK A01 T01730158  RH  091%=      5-min Rain = 0
KDO2 241155Z 15003KT 17/16 A2985 RMK A01 T01730159  RH  091%=      5-min Rain = 0
KDO2 241156Z 15003KT 17/16 A2985 RMK A01 T01720158  RH  091%=      5-min Rain = 0
KDO2 241157Z 15003KT 17/16 A2985 RMK A01 T01720158  RH  091%=      5-min Rain = 0
KDO2 241158Z 15003KT 17/16 A2985 RMK A01 T01720158  RH  092%=      5-min Rain = 0
KDO2 241159Z 16003KT 17/16 A2985 RMK A01 T01720158  RH  092%=      5-min Rain = 0
KDO2 241200Z 16003KT 17/16 A2985 RMK A01 T01720158  RH  092%=      5-min Rain = 0
KDO2 241201Z 15003KT 17/16 A2985 RMK A01 T01720159  RH  092%=      5-min Rain = 0
KDO2 241202Z 14003KT 17/16 A2985 RMK A01 T01710158  RH  092%=      5-min Rain = 0
KDO2 241203Z 14003KT 17/16 A2985 RMK A01 T01710158  RH  092%=      5-min Rain = 0
KDO2 241204Z 15004KT 17/16 A2985 RMK A01 T01710159  RH  092%=      5-min Rain = 0
KDO2 241205Z 15004KT 17/16 A2985 RMK A01 T01720159  RH  092%=      5-min Rain = 0
KDO2 241206Z 15004KT 17/16 A2985 RMK A01 T01710159  RH  092%=      5-min Rain = 0
KDO2 241207Z 15004KT 17/16 A2985 RMK A01 T01720159  RH  092%=      5-min Rain = 0
KDO2 241208Z 16004KT 17/16 A2985 RMK A01 T01720159  RH  092%=      5-min Rain = 0
KDO2 241209Z 15004KT 17/16 A2985 RMK A01 T01720160  RH  092%=      5-min Rain = 0
KDO2 241210Z 14004KT 17/16 A2985 RMK A01 T01730160  RH  092%=      5-min Rain = 0
KDO2 241211Z 14004KT 17/16 A2985 RMK A01 T01730160  RH  092%=      5-min Rain = 0
KDO2 241212Z 14004KT 17/16 A2986 RMK A01 T01730160  RH  092%=      5-min Rain = 0
KDO2 241213Z 13004KT 17/16 A2986 RMK A01 T01740160  RH  091%=      5-min Rain = 0
KDO2 241214Z 13004KT 17/16 A2985 RMK A01 T01740160  RH  091%=      5-min Rain = 0
KDO2 241215Z 13004KT 18/16 A2985 RMK A01 T01750160  RH  091%=      5-min Rain = 0
KDO2 241216Z 13003KT 18/16 A2985 RMK A01 T01760160  RH  090%=      5-min Rain = 0
KDO2 241217Z 14003KT 18/16 A2986 RMK A01 T01760160  RH  090%=      5-min Rain = 0
KDO2 241218Z 14004KT 18/16 A2986 RMK A01 T01770160  RH  090%=      5-min Rain = 0
KDO2 241219Z 14004KT 18/16 A2986 RMK A01 T01780160  RH  089%=      5-min Rain = 0
KDO2 241220Z 13004KT 18/16 A2986 RMK A01 T01790160  RH  089%=      5-min Rain = 0
KDO2 241221Z 13004KT 18/16 A2986 RMK A01 T01800160  RH  088%=      5-min Rain = 0
KDO2 241222Z 12003KT 18/16 A2986 RMK A01 T01800160  RH  088%=      5-min Rain = 0
KDO2 241223Z 13004KT 18/16 A2986 RMK A01 T01810161  RH  088%=      5-min Rain = 0
KDO2 241224Z 12004KT 18/16 A2986 RMK A01 T01820161  RH  088%=      5-min Rain = 0
KDO2 241225Z 12004KT 18/16 A2986 RMK A01 T01820160  RH  087%=      5-min Rain = 0
KDO2 241226Z 11004KT 18/16 A2986 RMK A01 T01820160  RH  087%=      5-min Rain = 0
KDO2 241227Z 11004KT 18/16 A2986 RMK A01 T01820160  RH  087%=      5-min Rain = 0
KDO2 241228Z 11005KT 18/16 A2986 RMK A01 T01820160  RH  087%=      5-min Rain = 0
KDO2 241229Z 11005KT 18/16 A2987 RMK A01 T01820160  RH  087%=      5-min Rain = 0
KDO2 241230Z 12005KT 18/16 A2987 RMK A01 T01810159  RH  087%=      5-min Rain = 0
KDO2 241231Z 13005KT 18/16 A2987 RMK A01 T01820158  RH  086%=      5-min Rain = 0
KDO2 241232Z 13004KT 18/16 A2987 RMK A01 T01820157  RH  085%=      5-min Rain = 0
KDO2 241233Z 13004KT 18/16 A2987 RMK A01 T01810156  RH  085%=      5-min Rain = 0
KDO2 241234Z 13003KT 18/16 A2987 RMK A01 T01820156  RH  085%=      5-min Rain = 0
KDO2 241235Z 14004KT 18/16 A2987 RMK A01 T01820156  RH  085%=      5-min Rain = 0
KDO2 241236Z 14004KT 18/16 A2987 RMK A01 T01830157  RH  085%=      5-min Rain = 0
KDO2 241237Z 14004KT 18/16 A2987 RMK A01 T01830157  RH  085%=      5-min Rain = 0
KDO2 241238Z 15003KT 18/16 A2987 RMK A01 T01830158  RH  086%=      5-min Rain = 0
KDO2 241239Z 15004KT 18/16 A2987 RMK A01 T01830159  RH  086%=      5-min Rain = 0
KDO2 241240Z 15003KT 18/16 A2987 RMK A01 T01840158  RH  085%=      5-min Rain = 0
KDO2 241241Z 15003KT 19/16 A2987 RMK A01 T01850158  RH  084%=      5-min Rain = 0
KDO2 241242Z 15004KT 19/16 A2987 RMK A01 T01850157  RH  083%=      5-min Rain = 0
KDO2 241243Z 14003KT 19/16 A2987 RMK A01 T01870156  RH  082%=      5-min Rain = 0
KDO2 241244Z 14004KT 19/16 A2987 RMK A01 T01880156  RH  082%=      5-min Rain = 0
KDO2 241245Z 14004KT 19/15 A2987 RMK A01 T01880154  RH  080%=      5-min Rain = 0
KDO2 241246Z 14004KT 19/16 A2987 RMK A01 T01890155  RH  081%=      5-min Rain = 0
KDO2 241247Z 14004KT 19/16 A2988 RMK A01 T01910156  RH  080%=      5-min Rain = 0
KDO2 241248Z 14004KT 19/16 A2988 RMK A01 T01920156  RH  080%=      5-min Rain = 0
KDO2 241249Z 14004KT 19/16 A2988 RMK A01 T01930155  RH  079%=      5-min Rain = 0
KDO2 241250Z 14003KT 19/16 A2988 RMK A01 T01940155  RH  078%=      5-min Rain = 0
KDO2 241251Z 15004KT 20/15 A2988 RMK A01 T01950154  RH  077%=      5-min Rain = 0
KDO2 241252Z 15005KT 20/15 A2988 RMK A01 T01970153  RH  076%=      5-min Rain = 0
KDO2 241253Z 16005KT 20/15 A2988 RMK A01 T01980151  RH  074%=      5-min Rain = 0
KDO2 241254Z 16005KT 20/15 A2988 RMK A01 T01990150  RH  073%=      5-min Rain = 0
KDO2 241255Z 16004KT 20/15 A2988 RMK A01 T02000151  RH  073%=      5-min Rain = 0
KDO2 241256Z 17005KT 20/15 A2988 RMK A01 T02010152  RH  073%=      5-min Rain = 0
KDO2 241257Z 17005KT 20/15 A2988 RMK A01 T02030154  RH  073%=      5-min Rain = 0
KDO2 241258Z 17005KT 20/15 A2988 RMK A01 T02030153  RH  073%=      5-min Rain = 0
KDO2 241259Z 17005KT 20/15 A2988 RMK A01 T02040154  RH  073%=      5-min Rain = 0
KDO2 241300Z 17005KT 21/15 A2989 RMK A01 T02050154  RH  072%=      5-min Rain = 0
KDO2 241301Z 17005KT 21/15 A2989 RMK A01 T02050152  RH  071%=      5-min Rain = 0
KDO2 241302Z 17004KT 21/15 A2989 RMK A01 T02060153  RH  072%=      5-min Rain = 0
KDO2 241303Z 18005KT 21/16 A2989 RMK A01 T02060155  RH  073%=      5-min Rain = 0
KDO2 241304Z 17005KT 21/15 A2989 RMK A01 T02070153  RH  071%=      5-min Rain = 0
KDO2 241305Z 17005KT 21/15 A2989 RMK A01 T02070151  RH  070%=      5-min Rain = 0
KDO2 241306Z 18005KT 21/15 A2989 RMK A01 T02070152  RH  070%=      5-min Rain = 0
KDO2 241307Z 18005KT 21/15 A2989 RMK A01 T02070151  RH  070%=      5-min Rain = 0
KDO2 241308Z 19005KT 21/15 A2989 RMK A01 T02080151  RH  070%=      5-min Rain = 0
KDO2 241309Z 20004KT 21/15 A2989 RMK A01 T02070153  RH  071%=      5-min Rain = 0
KDO2 241310Z 20004KT 21/15 A2989 RMK A01 T02080152  RH  070%=      5-min Rain = 0
KDO2 241311Z 20002KT 21/15 A2989 RMK A01 T02090153  RH  071%=      5-min Rain = 0
KDO2 241312Z 19002KT 21/15 A2989 RMK A01 T02090154  RH  071%=      5-min Rain = 0
KDO2 241313Z 20002KT 21/16 A2989 RMK A01 T02100155  RH  071%=      5-min Rain = 0
KDO2 241314Z 18003KT 21/16 A299 RMK A01 T02110157  RH  071%=      5-min Rain = 0
KDO2 241315Z 18004KT 21/16 A299 RMK A01 T02120156  RH  070%=      5-min Rain = 0
KDO2 241316Z 17004KT 21/16 A299 RMK A01 T02140156  RH  070%=      5-min Rain = 0
KDO2 241317Z 17003KT 22/16 A299 RMK A01 T02150160  RH  071%=      5-min Rain = 0
KDO2 241318Z 16003KT 22/16 A299 RMK A01 T02170159  RH  070%=      5-min Rain = 0
KDO2 241319Z 15003KT 22/16 A299 RMK A01 T02180160  RH  069%=      5-min Rain = 0
KDO2 241320Z 15002KT 22/16 A299 RMK A01 T02200161  RH  069%=      5-min Rain = 0
KDO2 241321Z 14002KT 22/16 A299 RMK A01 T02210160  RH  068%=      5-min Rain = 0
KDO2 241322Z 16003KT 22/16 A299 RMK A01 T02230159  RH  067%=      5-min Rain = 0
KDO2 241323Z 17005KT 22/16 A299 RMK A01 T02230160  RH  067%=      5-min Rain = 0
KDO2 241324Z 17007KT 22/16 A299 RMK A01 T02240161  RH  068%=      5-min Rain = 0
KDO2 241325Z 17007KT 22/16 A299 RMK A01 T02240160  RH  067%=      5-min Rain = 0
KDO2 241326Z 16007KT 22/16 A299 RMK A01 T02240161  RH  067%=      5-min Rain = 0
KDO2 241327Z 15006KT 23/16 A299 RMK A01 T02250161  RH  067%=      5-min Rain = 0
KDO2 241328Z 16005KT 23/16 A299 RMK A01 T02250162  RH  067%=      5-min Rain = 0
KDO2 241329Z 16007KT 23/16 A299 RMK A01 T02260162  RH  067%=      5-min Rain = 0
KDO2 241330Z 16008KT 23/16 A2991 RMK A01 T02260160  RH  066%=      5-min Rain = 0
KDO2 241331Z 16007KT 23/16 A2991 RMK A01 T02260161  RH  067%=      5-min Rain = 0
KDO2 241332Z 14006KT 23/16 A2991 RMK A01 T02260162  RH  067%=      5-min Rain = 0
KDO2 241333Z 16006KT 23/16 A2991 RMK A01 T02260164  RH  068%=      5-min Rain = 0
KDO2 241334Z 17006KT 23/17 A2991 RMK A01 T02270165  RH  068%=      5-min Rain = 0
KDO2 241335Z 16007KT 23/17 A2991 RMK A01 T02280165  RH  068%=      5-min Rain = 0
KDO2 241336Z 17010KT 23/17 A2991 RMK A01 T02290165  RH  067%=      5-min Rain = 0
KDO2 241337Z 18009KT 23/17 A2991 RMK A01 T02280165  RH  067%=      5-min Rain = 0
KDO2 241338Z 17011KT 23/17 A2991 RMK A01 T02280166  RH  068%=      5-min Rain = 0
KDO2 241339Z 17010KT 23/17 A2991 RMK A01 T02280166  RH  068%=      5-min Rain = 0
KDO2 241340Z 17010KT 23/17 A2991 RMK A01 T02280169  RH  070%=      5-min Rain = 0
KDO2 241341Z 16012KT 23/17 A2991 RMK A01 T02280170  RH  070%=      5-min Rain = 0
KDO2 241342Z 16014KT 23/17 A2991 RMK A01 T02290170  RH  070%=      5-min Rain = 0
KDO2 241343Z 15015KT 23/17 A2991 RMK A01 T02290169  RH  069%=      5-min Rain = 0
KDO2 241344Z 16013KT 23/17 A2991 RMK A01 T02290170  RH  069%=      5-min Rain = 0
KDO2 241345Z 16012KT 23/17 A2991 RMK A01 T02290169  RH  069%=      5-min Rain = 0
KDO2 241346Z 16012KT 23/17 A2991 RMK A01 T02300169  RH  069%=      5-min Rain = 0
KDO2 241347Z 16014KT 23/17 A2991 RMK A01 T02300168  RH  068%=      5-min Rain = 0
KDO2 241348Z 17012KT 23/17 A2991 RMK A01 T02290169  RH  069%=      5-min Rain = 0
KDO2 241349Z 16011KT 23/17 A2991 RMK A01 T02300168  RH  068%=      5-min Rain = 0
KDO2 241350Z 16010KT 23/17 A2991 RMK A01 T02300169  RH  068%=      5-min Rain = 0
KDO2 241351Z 17010KT 23/17 A2991 RMK A01 T02300170  RH  069%=      5-min Rain = 0
KDO2 241352Z 16008KT 23/17 A2991 RMK A01 T02320171  RH  069%=      5-min Rain = 0
KDO2 241353Z 17007KT 23/17 A2991 RMK A01 T02340173  RH  069%=      5-min Rain = 0
KDO2 241354Z 17010KT 24/17 A2991 RMK A01 T02360173  RH  068%=      5-min Rain = 0
KDO2 241355Z 16009KT 24/17 A2991 RMK A01 T02360172  RH  067%=      5-min Rain = 0
KDO2 241356Z 15010KT 24/17 A2991 RMK A01 T02360172  RH  067%=      5-min Rain = 0
KDO2 241357Z 15010KT 24/17 A2991 RMK A01 T02350173  RH  068%=      5-min Rain = 0
KDO2 241358Z 16011KT 24/17 A2991 RMK A01 T02350173  RH  068%=      5-min Rain = 0
KDO2 241359Z 16012KT 24/17 A2991 RMK A01 T02350173  RH  068%=      5-min Rain = 0
KDO2 241400Z 15012KT 24/17 A2991 RMK A01 T02350172  RH  068%=      5-min Rain = 0
KDO2 241401Z 15014KT 23/17 A2991 RMK A01 T02340172  RH  068%=      5-min Rain = 0
KDO2 241402Z 15012KT 23/17 A2991 RMK A01 T02340172  RH  068%=      5-min Rain = 0
KDO2 241403Z 16010KT 23/17 A2991 RMK A01 T02340173  RH  068%=      5-min Rain = 0
KDO2 241404Z 16012KT 24/17 A2991 RMK A01 T02350173  RH  068%=      5-min Rain = 0
KDO2 241405Z 16012KT 24/17 A2991 RMK A01 T02350174  RH  069%=      5-min Rain = 0
KDO2 241406Z 16011KT 23/17 A2991 RMK A01 T02340173  RH  069%=      5-min Rain = 0
KDO2 241407Z 15012KT 23/17 A2991 RMK A01 T02340172  RH  068%=      5-min Rain = 0
KDO2 241408Z 16009KT 23/17 A2991 RMK A01 T02340173  RH  069%=      5-min Rain = 0
KDO2 241409Z 16008KT 23/17 A299 RMK A01 T02340174  RH  069%=      5-min Rain = 0
KDO2 241410Z 16012KT 24/18 A299 RMK A01 T02370175  RH  068%=      5-min Rain = 0
KDO2 241411Z 15009KT 24/17 A299 RMK A01 T02370174  RH  068%=      5-min Rain = 0
KDO2 241412Z 14010KT 24/18 A299 RMK A01 T02380176  RH  069%=      5-min Rain = 0
KDO2 241413Z 15011KT 24/18 A299 RMK A01 T02380175  RH  068%=      5-min Rain = 0
KDO2 241414Z 14011KT 24/18 A299 RMK A01 T02370175  RH  068%=      5-min Rain = 0
KDO2 241415Z 14008KT 24/18 A299 RMK A01 T02360175  RH  069%=      5-min Rain = 0
KDO2 241416Z 17011KT 24/17 A299 RMK A01 T02360174  RH  068%=      5-min Rain = 0
KDO2 241417Z 15011KT 24/18 A299 RMK A01 T02370175  RH  068%=      5-min Rain = 0
KDO2 241418Z 15011KT 24/17 A299 RMK A01 T02380173  RH  067%=      5-min Rain = 0
KDO2 241419Z 16010KT 24/17 A299 RMK A01 T02370173  RH  067%=      5-min Rain = 0
KDO2 241420Z 16011KT 24/17 A299 RMK A01 T02360173  RH  068%=      5-min Rain = 0
KDO2 241421Z 16010KT 24/17 A299 RMK A01 T02360173  RH  068%=      5-min Rain = 0
KDO2 241422Z 16008KT 24/17 A299 RMK A01 T02360174  RH  068%=      5-min Rain = 0
KDO2 241423Z 16010KT 24/18 A299 RMK A01 T02360175  RH  069%=      5-min Rain = 0
KDO2 241424Z 17012KT 24/17 A299 RMK A01 T02370174  RH  068%=      5-min Rain = 0
KDO2 241425Z 17009KT 24/17 A299 RMK A01 T02370173  RH  067%=      5-min Rain = 0
KDO2 241426Z 17009KT 24/17 A299 RMK A01 T02370174  RH  068%=      5-min Rain = 0
KDO2 241427Z 16010KT 24/18 A2991 RMK A01 T02370175  RH  068%=      5-min Rain = 0
KDO2 241428Z 17008KT 24/18 A2991 RMK A01 T02390175  RH  067%=      5-min Rain = 0
KDO2 241429Z 17009KT 24/18 A299 RMK A01 T02400176  RH  067%=      5-min Rain = 0
KDO2 241430Z 15009KT 24/18 A299 RMK A01 T02400175  RH  067%=      5-min Rain = 0
KDO2 241431Z 15011KT 24/17 A299 RMK A01 T02410173  RH  066%=      5-min Rain = 0
KDO2 241432Z 15012KT 24/17 A299 RMK A01 T02400173  RH  066%=      5-min Rain = 0
KDO2 241433Z 16010KT 24/17 A299 RMK A01 T02400174  RH  067%=      5-min Rain = 0
KDO2 241434Z 16011KT 24/17 A299 RMK A01 T02400172  RH  066%=      5-min Rain = 0
KDO2 241435Z 15013KT 24/17 A299 RMK A01 T02400172  RH  065%=      5-min Rain = 0
KDO2 241436Z 15012KT 24/17 A299 RMK A01 T02410171  RH  065%=      5-min Rain = 0
KDO2 241437Z 16012KT 24/17 A299 RMK A01 T02420171  RH  065%=      5-min Rain = 0
KDO2 241438Z 16010KT 24/17 A299 RMK A01 T02420171  RH  064%=      5-min Rain = 0
KDO2 241439Z 16011KT 24/17 A299 RMK A01 T02430171  RH  064%=      5-min Rain = 0
KDO2 241440Z 16011KT 24/17 A299 RMK A01 T02430171  RH  064%=      5-min Rain = 0
KDO2 241441Z 17010KT 24/17 A299 RMK A01 T02440172  RH  064%=      5-min Rain = 0
KDO2 241442Z 17010KT 25/17 A299 RMK A01 T02450172  RH  064%=      5-min Rain = 0
KDO2 241443Z 17011KT 25/17 A299 RMK A01 T02450173  RH  064%=      5-min Rain = 0
KDO2 241444Z 17011KT 25/17 A299 RMK A01 T02450172  RH  064%=      5-min Rain = 0
KDO2 241445Z 18010KT 24/17 A299 RMK A01 T02440172  RH  064%=      5-min Rain = 0
KDO2 241446Z 17010KT 24/17 A299 RMK A01 T02440172  RH  064%=      5-min Rain = 0
KDO2 241447Z 17009KT 24/17 A299 RMK A01 T02440172  RH  064%=      5-min Rain = 0
KDO2 241448Z 16011KT 25/17 A299 RMK A01 T02450172  RH  064%=      5-min Rain = 0
KDO2 241449Z 15010KT 25/17 A299 RMK A01 T02450172  RH  064%=      5-min Rain = 0
KDO2 241450Z 15011KT 25/17 A299 RMK A01 T02470171  RH  063%=      5-min Rain = 0
KDO2 241451Z 14011KT 25/17 A299 RMK A01 T02480171  RH  062%=      5-min Rain = 0
KDO2 241452Z 14011KT 25/17 A299 RMK A01 T02480169  RH  061%=      5-min Rain = 0
KDO2 241453Z 15011KT 25/17 A299 RMK A01 T02480169  RH  062%=      5-min Rain = 0
KDO2 241454Z 15012KT 25/17 A299 RMK A01 T02470169  RH  062%=      5-min Rain = 0
KDO2 241455Z 15011KT 25/17 A299 RMK A01 T02480170  RH  062%=      5-min Rain = 0
KDO2 241456Z 15009KT 25/17 A299 RMK A01 T02490170  RH  062%=      5-min Rain = 0
KDO2 241457Z 16009KT 25/17 A299 RMK A01 T02500172  RH  062%=      5-min Rain = 0
KDO2 241458Z 15010KT 25/17 A299 RMK A01 T02510171  RH  061%=      5-min Rain = 0
KDO2 241459Z 16012KT 25/17 A299 RMK A01 T02510168  RH  060%=      5-min Rain = 0
KDO2 241500Z 17014KT 25/17 A2989 RMK A01 T02510169  RH  061%=      5-min Rain = 0
KDO2 241501Z 15010KT 25/17 A299 RMK A01 T02510167  RH  060%=      5-min Rain = 0
KDO2 241502Z 15009KT 25/17 A2989 RMK A01 T02510169  RH  060%=      5-min Rain = 0
KDO2 241503Z 17010KT 25/17 A2989 RMK A01 T02520171  RH  061%=      5-min Rain = 0
KDO2 241504Z 16011KT 25/17 A2989 RMK A01 T02540170  RH  060%=      5-min Rain = 0
KDO2 241505Z 15014KT 26/17 A2989 RMK A01 T02550169  RH  059%=      5-min Rain = 0
KDO2 241506Z 15012KT 25/17 A2989 RMK A01 T02540169  RH  059%=      5-min Rain = 0
KDO2 241507Z 16011KT 25/17 A2989 RMK A01 T02540170  RH  060%=      5-min Rain = 0
KDO2 241508Z 16013KT 26/17 A2989 RMK A01 T02570171  RH  059%=      5-min Rain = 0
KDO2 241509Z 17013KT 26/17 A2989 RMK A01 T02580169  RH  058%=      5-min Rain = 0
KDO2 241510Z 17014KT 26/17 A2989 RMK A01 T02560168  RH  058%=      5-min Rain = 0
KDO2 241511Z 17012KT 26/17 A2989 RMK A01 T02550169  RH  059%=      5-min Rain = 0
KDO2 241512Z 17012KT 26/17 A2989 RMK A01 T02550169  RH  059%=      5-min Rain = 0
KDO2 241513Z 16014KT 26/17 A2989 RMK A01 T02560169  RH  058%=      5-min Rain = 0
KDO2 241514Z 16013G18KT 26/17 A2989 RMK A01 T02560168  RH  058%=      5-min Rain = 0
KDO2 241515Z 15016KT 26/17 A2989 RMK A01 T02560169  RH  059%=      5-min Rain = 0
KDO2 241516Z 15012KT 26/17 A2989 RMK A01 T02560168  RH  058%=      5-min Rain = 0
KDO2 241517Z 16014KT 26/17 A2989 RMK A01 T02550170  RH  059%=      5-min Rain = 0
KDO2 241518Z 17012KT 26/17 A2989 RMK A01 T02570171  RH  059%=      5-min Rain = 0
KDO2 241519Z 15013KT 26/17 A2989 RMK A01 T02580171  RH  059%=      5-min Rain = 0
KDO2 241520Z 16016KT 26/17 A2989 RMK A01 T02580171  RH  058%=      5-min Rain = 0
KDO2 241521Z 17015KT 26/17 A2989 RMK A01 T02580170  RH  058%=      5-min Rain = 0
KDO2 241522Z 16014KT 26/17 A2989 RMK A01 T02570170  RH  059%=      5-min Rain = 0
KDO2 241523Z 16012KT 26/17 A2989 RMK A01 T02570170  RH  059%=      5-min Rain = 0
KDO2 241524Z 16012KT 26/17 A2989 RMK A01 T02570172  RH  059%=      5-min Rain = 0
KDO2 241525Z 16013KT 26/17 A2989 RMK A01 T02600172  RH  059%=      5-min Rain = 0
KDO2 241526Z 17013KT 26/17 A2989 RMK A01 T02600172  RH  058%=      5-min Rain = 0
KDO2 241527Z 17013KT 26/17 A2989 RMK A01 T02610173  RH  059%=      5-min Rain = 0
KDO2 241528Z 17011KT 26/17 A2989 RMK A01 T02620174  RH  058%=      5-min Rain = 0
KDO2 241529Z 17012KT 27/18 A2989 RMK A01 T02650175  RH  058%=      5-min Rain = 0
KDO2 241530Z 17012KT 27/18 A2989 RMK A01 T02690178  RH  058%=      5-min Rain = 0
KDO2 241531Z 17013KT 27/18 A2989 RMK A01 T02710177  RH  056%=      5-min Rain = 0
KDO2 241532Z 17015KT 27/18 A2989 RMK A01 T02710175  RH  056%=      5-min Rain = 0
KDO2 241533Z 17017KT 27/17 A2989 RMK A01 T02670173  RH  056%=      5-min Rain = 0
KDO2 241534Z 15015KT 27/17 A2989 RMK A01 T02650173  RH  057%=      5-min Rain = 0
KDO2 241535Z 17016KT 26/17 A2989 RMK A01 T02640173  RH  057%=      5-min Rain = 0
KDO2 241536Z 16016KT 26/17 A2988 RMK A01 T02630173  RH  058%=      5-min Rain = 0
KDO2 241537Z 16013KT 26/17 A2988 RMK A01 T02640173  RH  058%=      5-min Rain = 0
KDO2 241538Z 16013KT 26/17 A2988 RMK A01 T02640173  RH  057%=      5-min Rain = 0
KDO2 241539Z 16015KT 26/17 A2988 RMK A01 T02630173  RH  058%=      5-min Rain = 0
KDO2 241540Z 15014KT 26/17 A2988 RMK A01 T02630173  RH  058%=      5-min Rain = 0
KDO2 241541Z 17012KT 26/17 A2988 RMK A01 T02630174  RH  058%=      5-min Rain = 0
KDO2 241542Z 17013KT 27/17 A2988 RMK A01 T02650174  RH  058%=      5-min Rain = 0
KDO2 241543Z 16011KT 27/18 A2988 RMK A01 T02670175  RH  057%=      5-min Rain = 0
KDO2 241544Z 16011KT 27/17 A2988 RMK A01 T02680173  RH  056%=      5-min Rain = 0
KDO2 241545Z 17011KT 27/18 A2988 RMK A01 T02660175  RH  057%=      5-min Rain = 0
KDO2 241546Z 16013KT 27/17 A2988 RMK A01 T02660174  RH  057%=      5-min Rain = 0
KDO2 241547Z 17013KT 27/17 A2988 RMK A01 T02670174  RH  057%=      5-min Rain = 0
KDO2 241548Z 16012KT 27/18 A2988 RMK A01 T02680177  RH  057%=      5-min Rain = 0
KDO2 241549Z 17012KT 27/18 A2988 RMK A01 T02700175  RH  056%=      5-min Rain = 0
KDO2 241550Z 17011KT 27/17 A2988 RMK A01 T02690174  RH  056%=      5-min Rain = 0
KDO2 241551Z 18013KT 27/18 A2988 RMK A01 T02670175  RH  057%=      5-min Rain = 0
KDO2 241552Z 16013KT 27/18 A2988 RMK A01 T02680176  RH  057%=      5-min Rain = 0
KDO2 241553Z 15012KT 27/18 A2988 RMK A01 T02690176  RH  056%=      5-min Rain = 0
KDO2 241554Z 15013KT 27/18 A2988 RMK A01 T02690175  RH  056%=      5-min Rain = 0
KDO2 241555Z 16010KT 27/18 A2988 RMK A01 T02670175  RH  057%=      5-min Rain = 0
KDO2 241556Z 16011KT 27/18 A2988 RMK A01 T02660176  RH  058%=      5-min Rain = 0
KDO2 241557Z 16014KT 27/18 A2987 RMK A01 T02680177  RH  057%=      5-min Rain = 0
KDO2 241558Z 17015KT 27/18 A2987 RMK A01 T02690176  RH  057%=      5-min Rain = 0
KDO2 241559Z 16014G19KT 27/18 A2987 RMK A01 T02690176  RH  057%=      5-min Rain = 0
KDO2 241600Z 18013KT 27/18 A2987 RMK A01 T02690177  RH  057%=      5-min Rain = 0
KDO2 241601Z 18012KT 27/18 A2987 RMK A01 T02690177  RH  057%=      5-min Rain = 0
KDO2 241602Z 17013KT 27/18 A2987 RMK A01 T02690178  RH  058%=      5-min Rain = 0
KDO2 241603Z 16014G19KT 27/18 A2987 RMK A01 T02720181  RH  058%=      5-min Rain = 0
KDO2 241604Z 15015KT 28/18 A2987 RMK A01 T02760181  RH  056%=      5-min Rain = 0
KDO2 241605Z 15015KT 28/18 A2987 RMK A01 T02780181  RH  056%=      5-min Rain = 0
KDO2 241606Z 13017KT 28/18 A2987 RMK A01 T02780180  RH  055%=      5-min Rain = 0
KDO2 241607Z 14018KT 28/18 A2987 RMK A01 T02770179  RH  055%=      5-min Rain = 0
KDO2 241608Z 15016KT 28/18 A2987 RMK A01 T02770178  RH  055%=      5-min Rain = 0
KDO2 241609Z 15015KT 28/18 A2987 RMK A01 T02750180  RH  056%=      5-min Rain = 0
KDO2 241610Z 15017KT 28/18 A2987 RMK A01 T02760180  RH  056%=      5-min Rain = 0
KDO2 241611Z 15015KT 28/18 A2987 RMK A01 T02780182  RH  056%=      5-min Rain = 0
KDO2 241612Z 15016KT 28/18 A2987 RMK A01 T02810180  RH  054%=      5-min Rain = 0
KDO2 241613Z 14014KT 28/18 A2987 RMK A01 T02790178  RH  054%=      5-min Rain = 0
KDO2 241614Z 15016G22KT 28/18 A2987 RMK A01 T02770181  RH  056%=      5-min Rain = 0
KDO2 241615Z 16018KT 28/18 A2987 RMK A01 T02780180  RH  055%=      5-min Rain = 0
KDO2 241616Z 16016KT 28/18 A2987 RMK A01 T02770179  RH  055%=      5-min Rain = 0
KDO2 241617Z 15014G21KT 28/18 A2986 RMK A01 T02780182  RH  056%=      5-min Rain = 0
KDO2 241618Z 16016KT 28/18 A2986 RMK A01 T02810179  RH  054%=      5-min Rain = 0
KDO2 241619Z 15019KT 28/18 A2986 RMK A01 T02790179  RH  054%=      5-min Rain = 0
KDO2 241620Z 15017G22KT 28/18 A2986 RMK A01 T02770179  RH  055%=      5-min Rain = 0
KDO2 241621Z 14014KT 28/18 A2986 RMK A01 T02760178  RH  055%=      5-min Rain = 0
KDO2 241622Z 16013KT 28/18 A2986 RMK A01 T02760180  RH  056%=      5-min Rain = 0
KDO2 241623Z 17015KT 28/18 A2986 RMK A01 T02760180  RH  056%=      5-min Rain = 0
KDO2 241624Z 17013KT 28/18 A2986 RMK A01 T02760179  RH  055%=      5-min Rain = 0
KDO2 241625Z 17014KT 28/18 A2986 RMK A01 T02770178  RH  055%=      5-min Rain = 0
KDO2 241626Z 17014KT 28/18 A2986 RMK A01 T02790180  RH  055%=      5-min Rain = 0
KDO2 241627Z 16016KT 28/18 A2986 RMK A01 T02810182  RH  055%=      5-min Rain = 0
KDO2 241628Z 14013KT 28/18 A2986 RMK A01 T02840180  RH  053%=      5-min Rain = 0
KDO2 241629Z 15011KT 28/18 A2987 RMK A01 T02810180  RH  054%=      5-min Rain = 0
KDO2 241630Z 14016G21KT 28/18 A2987 RMK A01 T02830181  RH  054%=      5-min Rain = 0
KDO2 241631Z 16017KT 28/18 A2986 RMK A01 T02820179  RH  054%=      5-min Rain = 0
KDO2 241632Z 16016KT 28/18 A2987 RMK A01 T02790177  RH  054%=      5-min Rain = 0
KDO2 241633Z 18014KT 28/18 A2987 RMK A01 T02770179  RH  055%=      5-min Rain = 0
KDO2 241634Z 16017KT 28/18 A2987 RMK A01 T02790180  RH  055%=      5-min Rain = 0
KDO2 241635Z 16017KT 28/18 A2986 RMK A01 T02810180  RH  054%=      5-min Rain = 0
KDO2 241636Z 15020KT 28/18 A2986 RMK A01 T02810180  RH  054%=      5-min Rain = 0
KDO2 241637Z 16018G25KT 28/18 A2986 RMK A01 T02810181  RH  054%=      5-min Rain = 0
KDO2 241638Z 15018KT 28/18 A2986 RMK A01 T02830178  RH  053%=      5-min Rain = 0
KDO2 241639Z 14016KT 28/18 A2986 RMK A01 T02790179  RH  054%=      5-min Rain = 0
KDO2 241640Z 16020KT 28/18 A2986 RMK A01 T02830181  RH  054%=      5-min Rain = 0
KDO2 241641Z 16019KT 29/18 A2987 RMK A01 T02850180  RH  053%=      5-min Rain = 0
KDO2 241642Z 15019KT 29/18 A2987 RMK A01 T02850179  RH  053%=      5-min Rain = 0
KDO2 241643Z 16019KT 28/18 A2987 RMK A01 T02840177  RH  052%=      5-min Rain = 0
KDO2 241644Z 16016G21KT 28/18 A2987 RMK A01 T02800176  RH  053%=      5-min Rain = 0
KDO2 241645Z 15016KT 28/18 A2987 RMK A01 T02800178  RH  054%=      5-min Rain = 0
KDO2 241646Z 15015G20KT 28/18 A2986 RMK A01 T02810179  RH  054%=      5-min Rain = 0
KDO2 241647Z 14019KT 28/18 A2986 RMK A01 T02830178  RH  053%=      5-min Rain = 0
KDO2 241648Z 16018KT 28/18 A2986 RMK A01 T02840179  RH  053%=      5-min Rain = 0
KDO2 241649Z 16019KT 29/18 A2986 RMK A01 T02850179  RH  053%=      5-min Rain = 0
KDO2 241650Z 17019KT 29/18 A2986 RMK A01 T02850180  RH  053%=      5-min Rain = 0
KDO2 241651Z 17019KT 29/18 A2986 RMK A01 T02850178  RH  052%=      5-min Rain = 0
KDO2 241652Z 17019KT 29/18 A2986 RMK A01 T02860178  RH  052%=      5-min Rain = 0
KDO2 241653Z 18017KT 29/18 A2986 RMK A01 T02850177  RH  052%=      5-min Rain = 0
KDO2 241654Z 18016KT 29/18 A2986 RMK A01 T02850177  RH  052%=      5-min Rain = 0
KDO2 241655Z 17015KT 29/18 A2986 RMK A01 T02850179  RH  052%=      5-min Rain = 0
KDO2 241656Z 16014KT 29/18 A2987 RMK A01 T02890182  RH  052%=      5-min Rain = 0
KDO2 241657Z 17013KT 29/18 A2987 RMK A01 T02920180  RH  051%=      5-min Rain = 0
KDO2 241658Z 16014G20KT 29/18 A2986 RMK A01 T02920179  RH  051%=      5-min Rain = 0
KDO2 241659Z 15017KT 29/18 A2986 RMK A01 T02920182  RH  051%=      5-min Rain = 0
KDO2 241700Z 16018KT 29/18 A2986 RMK A01 T02920182  RH  051%=      5-min Rain = 0
KDO2 241701Z 18019KT 29/18 A2986 RMK A01 T02930182  RH  051%=      5-min Rain = 0
KDO2 241702Z 17017KT 29/18 A2986 RMK A01 T02910179  RH  051%=      5-min Rain = 0
KDO2 241703Z 18017KT 29/18 A2986 RMK A01 T02890181  RH  052%=      5-min Rain = 0
KDO2 241704Z 18017KT 29/18 A2986 RMK A01 T02900181  RH  052%=      5-min Rain = 0
KDO2 241705Z 19016KT 29/18 A2986 RMK A01 T02890180  RH  052%=      5-min Rain = 0
KDO2 241706Z 19018KT 29/18 A2986 RMK A01 T02880180  RH  052%=      5-min Rain = 0
KDO2 241707Z 18020KT 29/18 A2986 RMK A01 T02890182  RH  052%=      5-min Rain = 0
KDO2 241708Z 17019KT 29/18 A2986 RMK A01 T02910181  RH  051%=      5-min Rain = 0
KDO2 241709Z 17014KT 29/18 A2986 RMK A01 T02910180  RH  051%=      5-min Rain = 0
KDO2 241710Z 18016KT 29/18 A2986 RMK A01 T02880182  RH  053%=      5-min Rain = 0
KDO2 241711Z 18014KT 29/18 A2986 RMK A01 T02900183  RH  053%=      5-min Rain = 0
KDO2 241712Z 17015KT 29/18 A2986 RMK A01 T02930184  RH  052%=      5-min Rain = 0
KDO2 241713Z 16019G26KT 29/18 A2986 RMK A01 T02940182  RH  051%=      5-min Rain = 0
KDO2 241714Z 15020G25KT 29/18 A2986 RMK A01 T02910179  RH  051%=      5-min Rain = 0
KDO2 241715Z 15017KT 29/18 A2986 RMK A01 T02890181  RH  052%=      5-min Rain = 0
KDO2 241716Z 15021KT 29/18 A2985 RMK A01 T02880180  RH  052%=      5-min Rain = 0
KDO2 241717Z 17019KT 29/18 A2985 RMK A01 T02860178  RH  052%=      5-min Rain = 0
KDO2 241718Z 17017KT 29/18 A2986 RMK A01 T02850179  RH  053%=      5-min Rain = 0
KDO2 241719Z 18014KT 29/18 A2986 RMK A01 T02880181  RH  053%=      5-min Rain = 0
KDO2 241720Z 18016KT 29/18 A2986 RMK A01 T02900183  RH  053%=      5-min Rain = 0
KDO2 241721Z 17015KT 29/18 A2986 RMK A01 T02910182  RH  052%=      5-min Rain = 0
KDO2 241722Z 17015KT 29/18 A2986 RMK A01 T02910182  RH  052%=      5-min Rain = 0
KDO2 241723Z 17015KT 29/18 A2986 RMK A01 T02920181  RH  051%=      5-min Rain = 0
KDO2 241724Z 16019KT 29/18 A2985 RMK A01 T02920181  RH  051%=      5-min Rain = 0
KDO2 241725Z 16018G24KT 29/18 A2985 RMK A01 T02920183  RH  052%=      5-min Rain = 0
KDO2 241726Z 16019G25KT 29/18 A2985 RMK A01 T02940182  RH  051%=      5-min Rain = 0
KDO2 241727Z 16016KT 29/18 A2985 RMK A01 T02940183  RH  051%=      5-min Rain = 0
KDO2 241728Z 16018KT 30/18 A2985 RMK A01 T02950182  RH  050%=      5-min Rain = 0
KDO2 241729Z 16017KT 30/18 A2985 RMK A01 T02960182  RH  050%=      5-min Rain = 0
KDO2 241730Z 16019G24KT 30/18 A2985 RMK A01 T02960181  RH  050%=      5-min Rain = 0
KDO2 241731Z 16018KT 30/18 A2985 RMK A01 T02950182  RH  051%=      5-min Rain = 0
KDO2 241732Z 17018KT 30/18 A2985 RMK A01 T02950182  RH  050%=      5-min Rain = 0
KDO2 241733Z 17016KT 30/18 A2985 RMK A01 T02960181  RH  050%=      5-min Rain = 0
KDO2 241734Z 17016KT 29/18 A2985 RMK A01 T02940181  RH  050%=      5-min Rain = 0
KDO2 241735Z 16014KT 29/18 A2985 RMK A01 T02930182  RH  051%=      5-min Rain = 0
KDO2 241736Z 16017G22KT 29/18 A2985 RMK A01 T02930183  RH  052%=      5-min Rain = 0
KDO2 241737Z 18018G24KT 29/18 A2985 RMK A01 T02940182  RH  051%=      5-min Rain = 0
KDO2 241738Z 20016KT 29/18 A2985 RMK A01 T02940179  RH  050%=      5-min Rain = 0
KDO2 241739Z 18013KT 29/18 A2985 RMK A01 T02930181  RH  051%=      5-min Rain = 0
KDO2 241740Z 15017KT 29/18 A2985 RMK A01 T02940182  RH  051%=      5-min Rain = 0
KDO2 241741Z 16018KT 30/18 A2985 RMK A01 T02960182  RH  051%=      5-min Rain = 0
KDO2 241742Z 16017KT 30/18 A2985 RMK A01 T02960180  RH  050%=      5-min Rain = 0
KDO2 241743Z 15016KT 30/18 A2985 RMK A01 T02960179  RH  049%=      5-min Rain = 0
KDO2 241744Z 15020KT 30/18 A2985 RMK A01 T02960179  RH  050%=      5-min Rain = 0
KDO2 241745Z 16018KT 30/18 A2985 RMK A01 T02950182  RH  050%=      5-min Rain = 0
KDO2 241746Z 16015KT 30/18 A2985 RMK A01 T02950182  RH  051%=      5-min Rain = 0
KDO2 241747Z 16015KT 29/18 A2985 RMK A01 T02940183  RH  051%=      5-min Rain = 0
KDO2 241748Z 17015G21KT 30/18 A2985 RMK A01 T02960184  RH  051%=      5-min Rain = 0
KDO2 241749Z 16016KT 30/18 A2984 RMK A01 T02980183  RH  050%=      5-min Rain = 0
KDO2 241750Z 18014KT 30/18 A2984 RMK A01 T02990184  RH  050%=      5-min Rain = 0
KDO2 241751Z 19013KT 30/18 A2984 RMK A01 T03020184  RH  049%=      5-min Rain = 0
KDO2 241752Z 15013G20KT 30/18 A2984 RMK A01 T03020184  RH  049%=      5-min Rain = 0
KDO2 241753Z 17019KT 30/18 A2984 RMK A01 T03040184  RH  049%=      5-min Rain = 0
KDO2 241754Z 16018KT 31/18 A2984 RMK A01 T03070184  RH  048%=      5-min Rain = 0
KDO2 241755Z 16016KT 31/19 A2984 RMK A01 T03080185  RH  048%=      5-min Rain = 0
KDO2 241756Z 16017KT 31/18 A2984 RMK A01 T03070181  RH  047%=      5-min Rain = 0
KDO2 241757Z 16014KT 31/18 A2984 RMK A01 T03050181  RH  048%=      5-min Rain = 0
KDO2 241758Z 16014KT 30/18 A2984 RMK A01 T03030180  RH  048%=      5-min Rain = 0
KDO2 241759Z 18015KT 30/18 A2984 RMK A01 T03020184  RH  049%=      5-min Rain = 0
KDO2 241800Z 17018KT 31/19 A2983 RMK A01 T03080186  RH  048%=      5-min Rain = 0
KDO2 241801Z 16018KT 31/18 A2983 RMK A01 T03100183  RH  047%=      5-min Rain = 0
KDO2 241802Z 16018KT 31/18 A2983 RMK A01 T03060181  RH  047%=      5-min Rain = 0
KDO2 241803Z 16017KT 31/18 A2983 RMK A01 T03050181  RH  048%=      5-min Rain = 0
KDO2 241804Z 15017KT 31/18 A2983 RMK A01 T03050182  RH  048%=      5-min Rain = 0
KDO2 241805Z 16016KT 31/18 A2983 RMK A01 T03060181  RH  047%=      5-min Rain = 0
KDO2 241806Z 15016KT 31/18 A2983 RMK A01 T03050181  RH  048%=      5-min Rain = 0
KDO2 241807Z 15015G21KT 31/18 A2983 RMK A01 T03100183  RH  047%=      5-min Rain = 0
KDO2 241808Z 17019KT 32/19 A2983 RMK A01 T03170185  RH  046%=      5-min Rain = 0
KDO2 241809Z 17016KT 32/18 A2983 RMK A01 T03160181  RH  045%=      5-min Rain = 0
KDO2 241810Z 18018KT 31/18 A2983 RMK A01 T03130179  RH  045%=      5-min Rain = 0
KDO2 241811Z 18016KT 31/18 A2983 RMK A01 T03100178  RH  045%=      5-min Rain = 0
KDO2 241812Z 18016G22KT 31/18 A2983 RMK A01 T03080178  RH  046%=      5-min Rain = 0
KDO2 241813Z 17016KT 31/18 A2983 RMK A01 T03090177  RH  045%=      5-min Rain = 0
KDO2 241814Z 16013KT 31/18 A2983 RMK A01 T03090179  RH  046%=      5-min Rain = 0
KDO2 241815Z 16015KT 31/18 A2983 RMK A01 T03100181  RH  046%=      5-min Rain = 0
KDO2 241816Z 15018KT 31/18 A2983 RMK A01 T03110181  RH  046%=      5-min Rain = 0
KDO2 241817Z 15017KT 31/18 A2982 RMK A01 T03100181  RH  046%=      5-min Rain = 0
KDO2 241818Z 16019KT 31/18 A2982 RMK A01 T03070181  RH  047%=      5-min Rain = 0
KDO2 241819Z 15015KT 31/18 A2982 RMK A01 T03090183  RH  047%=      5-min Rain = 0
KDO2 241820Z 15018KT 31/18 A2982 RMK A01 T03110182  RH  046%=      5-min Rain = 0
KDO2 241821Z 16017KT 31/18 A2982 RMK A01 T03100180  RH  046%=      5-min Rain = 0
KDO2 241822Z 16014G20KT 31/18 A2982 RMK A01 T03080182  RH  047%=      5-min Rain = 0
KDO2 241823Z 15011KT 31/18 A2982 RMK A01 T03080181  RH  047%=      5-min Rain = 0
KDO2 241824Z 16011KT 31/18 A2982 RMK A01 T03070181  RH  047%=      5-min Rain = 0
KDO2 241825Z 17012KT 31/18 A2982 RMK A01 T03060181  RH  047%=      5-min Rain = 0
KDO2 241826Z 17018KT 31/18 A2982 RMK A01 T03070183  RH  047%=      5-min Rain = 0
KDO2 241827Z 16019KT 31/18 A2982 RMK A01 T03100179  RH  046%=      5-min Rain = 0
KDO2 241828Z 18017KT 31/18 A2982 RMK A01 T03110181  RH  046%=      5-min Rain = 0
KDO2 241829Z 18014KT 31/18 A2982 RMK A01 T03090179  RH  046%=      5-min Rain = 0
KDO2 241830Z 17014KT 31/18 A2981 RMK A01 T03070180  RH  046%=      5-min Rain = 0
KDO2 241831Z 18016KT 31/18 A2981 RMK A01 T03070179  RH  046%=      5-min Rain = 0
KDO2 241832Z 17017KT 31/18 A2981 RMK A01 T03090179  RH  046%=      5-min Rain = 0
KDO2 241833Z 17019KT 31/18 A2981 RMK A01 T03100180  RH  046%=      5-min Rain = 0
KDO2 241834Z 15017KT 31/18 A2981 RMK A01 T03090179  RH  046%=      5-min Rain = 0
KDO2 241835Z 15018KT 31/18 A2981 RMK A01 T03100179  RH  045%=      5-min Rain = 0
KDO2 241836Z 17019KT 31/18 A2981 RMK A01 T03090178  RH  046%=      5-min Rain = 0
KDO2 241837Z 16015KT 31/18 A2981 RMK A01 T03070178  RH  046%=      5-min Rain = 0
KDO2 241838Z 16015KT 31/18 A2981 RMK A01 T03080182  RH  047%=      5-min Rain = 0
KDO2 241839Z 17016KT 31/18 A2981 RMK A01 T03120184  RH  047%=      5-min Rain = 0
KDO2 241840Z 17014KT 32/18 A2981 RMK A01 T03150183  RH  045%=      5-min Rain = 0
KDO2 241841Z 17014KT 31/18 A2981 RMK A01 T03130179  RH  045%=      5-min Rain = 0
KDO2 241842Z 16013KT 31/18 A2981 RMK A01 T03090182  RH  047%=      5-min Rain = 0
KDO2 241843Z 16017G22KT 31/18 A298 RMK A01 T03120182  RH  046%=      5-min Rain = 0
KDO2 241844Z 15018KT 31/18 A298 RMK A01 T03130180  RH  045%=      5-min Rain = 0
KDO2 241845Z 16018G23KT 31/18 A298 RMK A01 T03140179  RH  045%=      5-min Rain = 0
KDO2 241846Z 15019KT 32/18 A298 RMK A01 T03150179  RH  044%=      5-min Rain = 0
KDO2 241847Z 15019KT 32/18 A298 RMK A01 T03160179  RH  044%=      5-min Rain = 0
KDO2 241848Z 17017KT 32/18 A298 RMK A01 T03160179  RH  044%=      5-min Rain = 0
KDO2 241849Z 18016KT 32/18 A298 RMK A01 T03170178  RH  044%=      5-min Rain = 0
KDO2 241850Z 17011KT 32/17 A298 RMK A01 T03160174  RH  043%=      5-min Rain = 0
KDO2 241851Z 16011KT 31/18 A298 RMK A01 T03120177  RH  044%=      5-min Rain = 0
KDO2 241852Z 16010KT 32/18 A298 RMK A01 T03160182  RH  045%=      5-min Rain = 0
KDO2 241853Z 16013KT 32/18 A298 RMK A01 T03200184  RH  044%=      5-min Rain = 0
KDO2 241854Z 15015KT 32/18 A298 RMK A01 T03200182  RH  044%=      5-min Rain = 0
KDO2 241855Z 16016KT 32/18 A298 RMK A01 T03160178  RH  044%=      5-min Rain = 0
KDO2 241856Z 16014KT 32/18 A298 RMK A01 T03150178  RH  044%=      5-min Rain = 0
KDO2 241857Z 17011KT 31/18 A298 RMK A01 T03120177  RH  044%=      5-min Rain = 0
KDO2 241858Z 17010KT 31/18 A298 RMK A01 T03110180  RH  045%=      5-min Rain = 0
KDO2 241859Z 19013KT 32/18 A2979 RMK A01 T03150182  RH  045%=      5-min Rain = 0
KDO2 241900Z 18013KT 32/19 A2979 RMK A01 T03200185  RH  045%=      5-min Rain = 0
KDO2 241901Z 18015G20KT 33/18 A2979 RMK A01 T03250183  RH  043%=      5-min Rain = 0
KDO2 241902Z 18015KT 32/18 A2979 RMK A01 T03230178  RH  042%=      5-min Rain = 0
KDO2 241903Z 15015KT 32/18 A2979 RMK A01 T03180178  RH  043%=      5-min Rain = 0
KDO2 241904Z 15016G22KT 32/18 A2979 RMK A01 T03160180  RH  044%=      5-min Rain = 0
KDO2 241905Z 16016KT 32/18 A2979 RMK A01 T03160177  RH  044%=      5-min Rain = 0
KDO2 241906Z 16016KT 31/18 A2979 RMK A01 T03140179  RH  045%=      5-min Rain = 0
KDO2 241907Z 16016KT 32/18 A2979 RMK A01 T03150178  RH  044%=      5-min Rain = 0
KDO2 241908Z 16015KT 32/18 A2979 RMK A01 T03160178  RH  044%=      5-min Rain = 0
KDO2 241909Z 17015KT 32/18 A2979 RMK A01 T03160177  RH  044%=      5-min Rain = 0
KDO2 241910Z 17016KT 32/18 A2979 RMK A01 T03160177  RH  043%=      5-min Rain = 0
KDO2 241911Z 17016KT 32/18 A2979 RMK A01 T03180176  RH  043%=      5-min Rain = 0
KDO2 241912Z 18011KT 32/18 A2979 RMK A01 T03190175  RH  042%=      5-min Rain = 0
KDO2 241913Z 20011KT 32/18 A2979 RMK A01 T03200176  RH  042%=      5-min Rain = 0
KDO2 241914Z 17012KT 32/18 A2979 RMK A01 T03200178  RH  043%=      5-min Rain = 0
KDO2 241915Z 17014KT 32/18 A2978 RMK A01 T03210180  RH  043%=      5-min Rain = 0
KDO2 241916Z 17012KT 32/18 A2978 RMK A01 T03230182  RH  043%=      5-min Rain = 0
KDO2 241917Z 18016G21KT 33/18 A2978 RMK A01 T03270183  RH  042%=      5-min Rain = 0
KDO2 241918Z 17019KT 33/18 A2978 RMK A01 T03270179  RH  041%=      5-min Rain = 0
KDO2 241919Z 17014KT 32/18 A2978 RMK A01 T03240178  RH  042%=      5-min Rain = 0
KDO2 241920Z 18015KT 32/18 A2978 RMK A01 T03230179  RH  042%=      5-min Rain = 0
KDO2 241921Z 18013KT 32/18 A2978 RMK A01 T03230179  RH  042%=      5-min Rain = 0
KDO2 241922Z 18013KT 33/18 A2978 RMK A01 T03260182  RH  042%=      5-min Rain = 0
KDO2 241923Z 17015KT 33/18 A2978 RMK A01 T03280181  RH  042%=      5-min Rain = 0
KDO2 241924Z 17017KT 33/18 A2978 RMK A01 T03250178  RH  042%=      5-min Rain = 0
KDO2 241925Z 17015KT 32/18 A2978 RMK A01 T03190175  RH  042%=      5-min Rain = 0
KDO2 241926Z 16013KT 32/18 A2978 RMK A01 T03150176  RH  044%=      5-min Rain = 0
KDO2 241927Z 16013KT 32/18 A2978 RMK A01 T03170179  RH  044%=      5-min Rain = 0
KDO2 241928Z 17013KT 32/18 A2978 RMK A01 T03190179  RH  043%=      5-min Rain = 0
KDO2 241929Z 17012KT 32/18 A2978 RMK A01 T03170175  RH  043%=      5-min Rain = 0
KDO2 241930Z 17010KT 31/18 A2978 RMK A01 T03140177  RH  044%=      5-min Rain = 0
KDO2 241931Z 16012G17KT 32/18 A2977 RMK A01 T03160179  RH  044%=      5-min Rain = 0
KDO2 241932Z 17018KT 32/18 A2977 RMK A01 T03170177  RH  043%=      5-min Rain = 0
KDO2 241933Z 17017KT 32/18 A2977 RMK A01 T03180175  RH  042%=      5-min Rain = 0
KDO2 241934Z 19018KT 32/18 A2977 RMK A01 T03200177  RH  042%=      5-min Rain = 0
KDO2 241935Z 19015KT 32/18 A2977 RMK A01 T03230176  RH  042%=      5-min Rain = 0
KDO2 241936Z 20016KT 32/18 A2977 RMK A01 T03240176  RH  041%=      5-min Rain = 0
KDO2 241937Z 18015KT 32/18 A2977 RMK A01 T03220177  RH  042%=      5-min Rain = 0
KDO2 241938Z 17016G21KT 33/18 A2977 RMK A01 T03280181  RH  042%=      5-min Rain = 0
KDO2 241939Z 17015KT 33/18 A2977 RMK A01 T03310176  RH  040%=      5-min Rain = 0
KDO2 241940Z 17016KT 33/18 A2977 RMK A01 T03280177  RH  041%=      5-min Rain = 0
KDO2 241941Z 17017KT 33/18 A2977 RMK A01 T03280177  RH  041%=      5-min Rain = 0
KDO2 241942Z 17016KT 33/18 A2977 RMK A01 T03260175  RH  041%=      5-min Rain = 0
KDO2 241943Z 16013KT 32/17 A2977 RMK A01 T03210172  RH  041%=      5-min Rain = 0
KDO2 241944Z 16012KT 32/17 A2976 RMK A01 T03170171  RH  042%=      5-min Rain = 0
KDO2 241945Z 17015KT 32/18 A2976 RMK A01 T03170175  RH  043%=      5-min Rain = 0
KDO2 241946Z 16016KT 32/18 A2976 RMK A01 T03220176  RH  042%=      5-min Rain = 0
KDO2 241947Z 17020G26KT 32/18 A2976 RMK A01 T03230175  RH  041%=      5-min Rain = 0
KDO2 241948Z 17018KT 32/18 A2976 RMK A01 T03240175  RH  041%=      5-min Rain = 0
KDO2 241949Z 17015KT 32/17 A2976 RMK A01 T03230172  RH  040%=      5-min Rain = 0
KDO2 241950Z 17012KT 32/17 A2976 RMK A01 T03190171  RH  041%=      5-min Rain = 0
KDO2 241951Z 17014KT 32/18 A2976 RMK A01 T03200175  RH  042%=      5-min Rain = 0
KDO2 241952Z 18018KT 32/18 A2976 RMK A01 T03230176  RH  042%=      5-min Rain = 0
KDO2 241953Z 19017KT 32/17 A2976 RMK A01 T03220172  RH  041%=      5-min Rain = 0
KDO2 241954Z 19015KT 32/17 A2976 RMK A01 T03220174  RH  041%=      5-min Rain = 0
KDO2 241955Z 17014KT 32/18 A2976 RMK A01 T03220176  RH  042%=      5-min Rain = 0
KDO2 241956Z 16016KT 33/18 A2976 RMK A01 T03260176  RH  041%=      5-min Rain = 0
KDO2 241957Z 18018KT 33/17 A2976 RMK A01 T03250173  RH  040%=      5-min Rain = 0
KDO2 241958Z 19017KT 33/17 A2976 RMK A01 T03250173  RH  041%=      5-min Rain = 0
KDO2 241959Z 18017KT 33/17 A2976 RMK A01 T03270174  RH  040%=      5-min Rain = 0
KDO2 242000Z 17016KT 33/17 A2976 RMK A01 T03300172  RH  039%=      5-min Rain = 0
KDO2 242001Z 17012KT 33/17 A2976 RMK A01 T03280173  RH  040%=      5-min Rain = 0
KDO2 242002Z 16016KT 33/17 A2976 RMK A01 T03290174  RH  040%=      5-min Rain = 0
KDO2 242003Z 16015KT 33/17 A2975 RMK A01 T03280172  RH  039%=      5-min Rain = 0
KDO2 242004Z 17015KT 32/17 A2975 RMK A01 T03240171  RH  040%=      5-min Rain = 0
KDO2 242005Z 19017KT 32/17 A2975 RMK A01 T03220172  RH  041%=      5-min Rain = 0
KDO2 242006Z 19013KT 32/17 A2976 RMK A01 T03210169  RH  040%=      5-min Rain = 0
KDO2 242007Z 19011KT 32/17 A2975 RMK A01 T03190171  RH  041%=      5-min Rain = 0
KDO2 242008Z 20015KT 32/17 A2975 RMK A01 T03200172  RH  041%=      5-min Rain = 0
KDO2 242009Z 19018KT 32/17 A2975 RMK A01 T03240171  RH  040%=      5-min Rain = 0
KDO2 242010Z 19018KT 33/17 A2975 RMK A01 T03290172  RH  039%=      5-min Rain = 0
KDO2 242011Z 18019KT 33/17 A2975 RMK A01 T03300172  RH  039%=      5-min Rain = 0
KDO2 242012Z 19014KT 33/17 A2975 RMK A01 T03300171  RH  039%=      5-min Rain = 0
KDO2 242013Z 19014KT 33/17 A2975 RMK A01 T03270168  RH  039%=      5-min Rain = 0
KDO2 242014Z 20013KT 32/17 A2975 RMK A01 T03220168  RH  040%=      5-min Rain = 0
KDO2 242015Z 21013KT 32/17 A2975 RMK A01 T03220169  RH  040%=      5-min Rain = 0
KDO2 242016Z 20011KT 32/17 A2974 RMK A01 T03240170  RH  040%=      5-min Rain = 0
KDO2 242017Z 19014G19KT 33/17 A2974 RMK A01 T03250173  RH  040%=      5-min Rain = 0
KDO2 242018Z 17013KT 33/17 A2974 RMK A01 T03260173  RH  040%=      5-min Rain = 0
KDO2 242019Z 16016KT 33/17 A2974 RMK A01 T03270171  RH  039%=      5-min Rain = 0
KDO2 242020Z 16011KT 33/17 A2974 RMK A01 T03270172  RH  039%=      5-min Rain = 0
KDO2 242021Z 16015G22KT 33/18 A2974 RMK A01 T03310176  RH  040%=      5-min Rain = 0
KDO2 242022Z 17016G22KT 33/17 A2974 RMK A01 T03330174  RH  039%=      5-min Rain = 0
KDO2 242023Z 16015KT 33/17 A2974 RMK A01 T03320172  RH  039%=      5-min Rain = 0
KDO2 242024Z 16016KT 33/17 A2974 RMK A01 T03270171  RH  039%=      5-min Rain = 0
KDO2 242025Z 19017KT 33/17 A2974 RMK A01 T03250169  RH  039%=      5-min Rain = 0
KDO2 242026Z 18016KT 32/17 A2974 RMK A01 T03240167  RH  039%=      5-min Rain = 0
KDO2 242027Z 18014KT 32/17 A2974 RMK A01 T03230169  RH  040%=      5-min Rain = 0
KDO2 242028Z 17011G16KT 33/17 A2974 RMK A01 T03250172  RH  040%=      5-min Rain = 0
KDO2 242029Z 18015KT 33/17 A2974 RMK A01 T03270173  RH  040%=      5-min Rain = 0
KDO2 242030Z 18015KT 33/18 A2974 RMK A01 T03310177  RH  040%=      5-min Rain = 0
KDO2 242031Z 19020G25KT 33/17 A2974 RMK A01 T03330172  RH  038%=      5-min Rain = 0
KDO2 242032Z 20017KT 33/17 A2974 RMK A01 T03290172  RH  039%=      5-min Rain = 0
KDO2 242033Z 20014KT 33/17 A2974 RMK A01 T03280172  RH  039%=      5-min Rain = 0
KDO2 242034Z 18016KT 33/17 A2974 RMK A01 T03260170  RH  039%=      5-min Rain = 0
KDO2 242035Z 17014KT 33/17 A2974 RMK A01 T03250169  RH  039%=      5-min Rain = 0
KDO2 242036Z 17014KT 32/17 A2974 RMK A01 T03240171  RH  040%=      5-min Rain = 0
KDO2 242037Z 19010KT 33/17 A2974 RMK A01 T03250168  RH  039%=      5-min Rain = 0
KDO2 242038Z 18011KT 32/17 A2974 RMK A01 T03230169  RH  040%=      5-min Rain = 0
KDO2 242039Z 18013KT 32/17 A2974 RMK A01 T03240170  RH  040%=      5-min Rain = 0
KDO2 242040Z 18013KT 33/18 A2974 RMK A01 T03250175  RH  041%=      5-min Rain = 0
KDO2 242041Z 18017KT 33/17 A2973 RMK A01 T03310174  RH  039%=      5-min Rain = 0
KDO2 242042Z 17015KT 33/17 A2973 RMK A01 T03310173  RH  039%=      5-min Rain = 0
KDO2 242043Z 15016KT 33/17 A2973 RMK A01 T03290172  RH  039%=      5-min Rain = 0
KDO2 242044Z 16015KT 33/17 A2973 RMK A01 T03280173  RH  040%=      5-min Rain = 0
KDO2 242045Z 16016G21KT 33/18 A2973 RMK A01 T03280175  RH  040%=      5-min Rain = 0
KDO2 242046Z 18019KT 33/17 A2973 RMK A01 T03300174  RH  039%=      5-min Rain = 0
KDO2 242047Z 19018KT 33/17 A2973 RMK A01 T03290172  RH  039%=      5-min Rain = 0
KDO2 242048Z 19014KT 33/17 A2973 RMK A01 T03270171  RH  039%=      5-min Rain = 0
KDO2 242049Z 19012KT 32/17 A2973 RMK A01 T03240171  RH  040%=      5-min Rain = 0
KDO2 242050Z 19011KT 32/17 A2973 RMK A01 T03220171  RH  040%=      5-min Rain = 0
KDO2 242051Z 18013KT 32/17 A2973 RMK A01 T03220172  RH  041%=      5-min Rain = 0
KDO2 242052Z 17014KT 32/17 A2973 RMK A01 T03240173  RH  041%=      5-min Rain = 0
KDO2 242053Z 17011KT 33/17 A2973 RMK A01 T03250173  RH  040%=      5-min Rain = 0
KDO2 242054Z 18012KT 32/17 A2972 RMK A01 T03240174  RH  041%=      5-min Rain = 0
KDO2 242055Z 17010KT 32/17 A2972 RMK A01 T03240173  RH  041%=      5-min Rain = 0
KDO2 242056Z 18010KT 33/17 A2972 RMK A01 T03250173  RH  040%=      5-min Rain = 0
KDO2 242057Z 20012KT 33/17 A2972 RMK A01 T03260174  RH  040%=      5-min Rain = 0
KDO2 242058Z 19017KT 33/18 A2972 RMK A01 T03310176  RH  040%=      5-min Rain = 0
KDO2 242059Z 19013KT 33/17 A2972 RMK A01 T03310171  RH  038%=      5-min Rain = 0
KDO2 242100Z 19012KT 33/17 A2972 RMK A01 T03260170  RH  039%=      5-min Rain = 0
KDO2 242101Z 20012KT 33/17 A2972 RMK A01 T03250170  RH  039%=      5-min Rain = 0
KDO2 242102Z 19013KT 33/17 A2972 RMK A01 T03250172  RH  040%=      5-min Rain = 0
KDO2 242103Z 15011KT 33/18 A2972 RMK A01 T03280175  RH  040%=      5-min Rain = 0
KDO2 242104Z 15010KT 33/18 A2971 RMK A01 T03290175  RH  040%=      5-min Rain = 0
KDO2 242105Z 18013KT 33/18 A2971 RMK A01 T03290176  RH  040%=      5-min Rain = 0
KDO2 242106Z 17015KT 33/18 A2971 RMK A01 T03310175  RH  039%=      5-min Rain = 0
KDO2 242107Z 18013KT 33/18 A2971 RMK A01 T03320175  RH  039%=      5-min Rain = 0
KDO2 242108Z 19014KT 33/17 A2971 RMK A01 T03290173  RH  040%=      5-min Rain = 0
KDO2 242109Z 19013KT 33/17 A2971 RMK A01 T03270174  RH  040%=      5-min Rain = 0
KDO2 242110Z 20014KT 33/17 A2971 RMK A01 T03270174  RH  040%=      5-min Rain = 0
KDO2 242111Z 19017KT 33/18 A2971 RMK A01 T03270175  RH  040%=      5-min Rain = 0
KDO2 242112Z 18013KT 33/17 A2971 RMK A01 T03260173  RH  040%=      5-min Rain = 0
KDO2 242113Z 18012KT 33/18 A2971 RMK A01 T03250175  RH  041%=      5-min Rain = 0
KDO2 242114Z 15014KT 33/18 A2971 RMK A01 T03250175  RH  041%=      5-min Rain = 0
KDO2 242115Z 16018KT 32/17 A2971 RMK A01 T03240174  RH  041%=      5-min Rain = 0
KDO2 242116Z 16017KT 32/17 A2971 RMK A01 T03240173  RH  041%=      5-min Rain = 0
KDO2 242117Z 16017KT 32/17 A2971 RMK A01 T03230173  RH  041%=      5-min Rain = 0
KDO2 242118Z 16016KT 33/17 A2971 RMK A01 T03250173  RH  040%=      5-min Rain = 0
KDO2 242119Z 17012KT 32/17 A2971 RMK A01 T03240173  RH  041%=      5-min Rain = 0
KDO2 242120Z 17012KT 32/17 A2971 RMK A01 T03220172  RH  041%=      5-min Rain = 0
KDO2 242121Z 15013KT 32/17 A2971 RMK A01 T03210173  RH  041%=      5-min Rain = 0
KDO2 242122Z 15014KT 32/17 A2971 RMK A01 T03230173  RH  041%=      5-min Rain = 0
KDO2 242123Z 17015KT 32/17 A297 RMK A01 T03230174  RH  041%=      5-min Rain = 0
KDO2 242124Z 17016KT 32/17 A297 RMK A01 T03230172  RH  040%=      5-min Rain = 0
KDO2 242125Z 16014KT 32/17 A297 RMK A01 T03210171  RH  041%=      5-min Rain = 0
KDO2 242126Z 17014KT 32/17 A297 RMK A01 T03200171  RH  041%=      5-min Rain = 0
KDO2 242127Z 17013KT 32/17 A297 RMK A01 T03200171  RH  041%=      5-min Rain = 0
KDO2 242128Z 17012KT 32/17 A297 RMK A01 T03220174  RH  041%=      5-min Rain = 0
KDO2 242129Z 17011KT 32/17 A297 RMK A01 T03240174  RH  041%=      5-min Rain = 0
KDO2 242130Z 18011G16KT 33/17 A297 RMK A01 T03250174  RH  041%=      5-min Rain = 0
KDO2 242131Z 19015KT 33/18 A2969 RMK A01 T03280175  RH  040%=      5-min Rain = 0
KDO2 242132Z 19012KT 33/17 A2969 RMK A01 T03310174  RH  039%=      5-min Rain = 0
KDO2 242133Z 18013KT 33/17 A2969 RMK A01 T03320173  RH  039%=      5-min Rain = 0
KDO2 242134Z 18013KT 33/17 A2969 RMK A01 T03320173  RH  039%=      5-min Rain = 0
KDO2 242135Z 16012KT 33/17 A2969 RMK A01 T03310174  RH  039%=      5-min Rain = 0
KDO2 242136Z 15015KT 33/18 A2969 RMK A01 T03330176  RH  039%=      5-min Rain = 0
KDO2 242137Z 14015KT 33/18 A2969 RMK A01 T03330175  RH  039%=      5-min Rain = 0
KDO2 242138Z 15016KT 33/18 A2969 RMK A01 T03330175  RH  039%=      5-min Rain = 0
KDO2 242139Z 15015KT 33/17 A2969 RMK A01 T03300172  RH  039%=      5-min Rain = 0
KDO2 242140Z 16015KT 33/17 A2969 RMK A01 T03260172  RH  040%=      5-min Rain = 0
KDO2 242141Z 16014KT 32/17 A2969 RMK A01 T03240171  RH  040%=      5-min Rain = 0
KDO2 242142Z 16012KT 32/17 A2969 RMK A01 T03230170  RH  040%=      5-min Rain = 0
KDO2 242143Z 17012KT 32/17 A2969 RMK A01 T03210170  RH  041%=      5-min Rain = 0
KDO2 242144Z 15012KT 32/17 A2969 RMK A01 T03210172  RH  041%=      5-min Rain = 0
KDO2 242145Z 14011KT 32/17 A2969 RMK A01 T03220171  RH  041%=      5-min Rain = 0
KDO2 242146Z 15010KT 32/17 A2969 RMK A01 T03210172  RH  041%=      5-min Rain = 0
KDO2 242147Z 17013KT 32/17 A2969 RMK A01 T03210174  RH  042%=      5-min Rain = 0
KDO2 242148Z 17013KT 32/17 A2969 RMK A01 T03240174  RH  041%=      5-min Rain = 0
KDO2 242149Z 16013KT 33/17 A2969 RMK A01 T03260174  RH  040%=      5-min Rain = 0
KDO2 242150Z 18015KT 33/17 A2969 RMK A01 T03270173  RH  040%=      5-min Rain = 0
KDO2 242151Z 19015KT 33/17 A2969 RMK A01 T03270173  RH  040%=      5-min Rain = 0
KDO2 242152Z 20012KT 33/17 A2969 RMK A01 T03280174  RH  040%=      5-min Rain = 0
KDO2 242153Z 20016KT 33/17 A2969 RMK A01 T03300174  RH  040%=      5-min Rain = 0
KDO2 242154Z 20014KT 33/18 A2969 RMK A01 T03300175  RH  040%=      5-min Rain = 0
KDO2 242155Z 19012KT 33/18 A2969 RMK A01 T03330179  RH  040%=      5-min Rain = 0
KDO2 242156Z 19012KT 34/18 A2969 RMK A01 T03360178  RH  039%=      5-min Rain = 0
KDO2 242157Z 18014KT 33/18 A2969 RMK A01 T03340177  RH  039%=      5-min Rain = 0
KDO2 242158Z 15016KT 33/18 A2969 RMK A01 T03330178  RH  040%=      5-min Rain = 0
KDO2 242159Z 15018KT 33/18 A2969 RMK A01 T03330177  RH  039%=      5-min Rain = 0
KDO2 242200Z 15014KT 33/18 A2969 RMK A01 T03300177  RH  040%=      5-min Rain = 0
KDO2 242201Z 15014KT 33/18 A2969 RMK A01 T03280176  RH  040%=      5-min Rain = 0
KDO2 242202Z 16016KT 33/18 A2969 RMK A01 T03270176  RH  041%=      5-min Rain = 0
KDO2 242203Z 16014KT 33/18 A2969 RMK A01 T03270176  RH  041%=      5-min Rain = 0
KDO2 242204Z 17014KT 33/18 A2969 RMK A01 T03260175  RH  040%=      5-min Rain = 0
KDO2 242205Z 17012KT 32/17 A2969 RMK A01 T03240174  RH  041%=      5-min Rain = 0
KDO2 242206Z 15014KT 32/17 A2969 RMK A01 T03240174  RH  041%=      5-min Rain = 0
KDO2 242207Z 15015G20KT 32/17 A2969 RMK A01 T03230173  RH  041%=      5-min Rain = 0
KDO2 242208Z 15016KT 32/17 A2969 RMK A01 T03220174  RH  041%=      5-min Rain = 0
KDO2 242209Z 15017KT 32/17 A2969 RMK A01 T03220173  RH  041%=      5-min Rain = 0
KDO2 242210Z 15016KT 32/17 A2969 RMK A01 T03220174  RH  041%=      5-min Rain = 0
KDO2 242211Z 14014KT 32/17 A2969 RMK A01 T03220172  RH  041%=      5-min Rain = 0
KDO2 242212Z 16013KT 32/17 A2969 RMK A01 T03210173  RH  041%=      5-min Rain = 0
KDO2 242213Z 16012KT 32/17 A2969 RMK A01 T03210171  RH  041%=      5-min Rain = 0
KDO2 242214Z 16012KT 32/17 A2969 RMK A01 T03210172  RH  041%=      5-min Rain = 0
KDO2 242215Z 17015KT 32/17 A2969 RMK A01 T03210171  RH  041%=      5-min Rain = 0
KDO2 242216Z 17013KT 32/17 A2969 RMK A01 T03210172  RH  041%=      5-min Rain = 0
KDO2 242217Z 17012KT 32/17 A2969 RMK A01 T03220172  RH  041%=      5-min Rain = 0
KDO2 242218Z 18012KT 32/17 A2969 RMK A01 T03230172  RH  041%=      5-min Rain = 0
KDO2 242219Z 18012KT 32/17 A297 RMK A01 T03220172  RH  041%=      5-min Rain = 0
KDO2 242220Z 18012KT 32/17 A297 RMK A01 T03210173  RH  041%=      5-min Rain = 0
KDO2 242221Z 18015KT 32/17 A2969 RMK A01 T03200171  RH  041%=      5-min Rain = 0
KDO2 242222Z 18014KT 32/17 A2969 RMK A01 T03210170  RH  040%=      5-min Rain = 0
KDO2 242223Z 19014KT 32/17 A2969 RMK A01 T03220169  RH  040%=      5-min Rain = 0
KDO2 242224Z 17014KT 32/17 A2969 RMK A01 T03220170  RH  040%=      5-min Rain = 0
KDO2 242225Z 18014KT 32/17 A2969 RMK A01 T03220169  RH  040%=      5-min Rain = 0
KDO2 242226Z 19015KT 32/17 A2969 RMK A01 T03220168  RH  040%=      5-min Rain = 0
KDO2 242227Z 19018G23KT 32/17 A2969 RMK A01 T03210168  RH  040%=      5-min Rain = 0
KDO2 242228Z 18016G22KT 32/17 A2969 RMK A01 T03210168  RH  040%=      5-min Rain = 0
KDO2 242229Z 18013KT 32/17 A2969 RMK A01 T03210170  RH  040%=      5-min Rain = 0
KDO2 242230Z 17012KT 32/17 A2969 RMK A01 T03220172  RH  041%=      5-min Rain = 0
KDO2 242231Z 17012KT 32/17 A2969 RMK A01 T03230171  RH  040%=      5-min Rain = 0
KDO2 242232Z 16011KT 32/17 A2969 RMK A01 T03220172  RH  041%=      5-min Rain = 0
KDO2 242233Z 16010KT 32/17 A2969 RMK A01 T03210172  RH  041%=      5-min Rain = 0
KDO2 242234Z 16010KT 32/17 A2969 RMK A01 T03200173  RH  041%=      5-min Rain = 0
KDO2 242235Z 18012G17KT 32/18 A2969 RMK A01 T03210175  RH  042%=      5-min Rain = 0
KDO2 242236Z 18017KT 32/17 A2968 RMK A01 T03230174  RH  041%=      5-min Rain = 0
KDO2 242237Z 17016KT 32/17 A2968 RMK A01 T03230173  RH  041%=      5-min Rain = 0
KDO2 242238Z 17015KT 32/17 A2969 RMK A01 T03210172  RH  041%=      5-min Rain = 0
KDO2 242239Z 16014KT 32/17 A2969 RMK A01 T03210172  RH  041%=      5-min Rain = 0
KDO2 242240Z 17016KT 32/17 A2969 RMK A01 T03220172  RH  041%=      5-min Rain = 0
KDO2 242241Z 15017KT 32/17 A2969 RMK A01 T03220172  RH  041%=      5-min Rain = 0
KDO2 242242Z 16013KT 32/17 A2969 RMK A01 T03220172  RH  041%=      5-min Rain = 0
KDO2 242243Z 15014KT 32/17 A2968 RMK A01 T03210173  RH  041%=      5-min Rain = 0
KDO2 242244Z 16016KT 32/17 A2968 RMK A01 T03220172  RH  041%=      5-min Rain = 0
KDO2 242245Z 16015KT 32/17 A2968 RMK A01 T03210172  RH  041%=      5-min Rain = 0
KDO2 242246Z 15012KT 32/17 A2968 RMK A01 T03200172  RH  041%=      5-min Rain = 0
KDO2 242247Z 16012KT 32/17 A2968 RMK A01 T03200173  RH  042%=      5-min Rain = 0
KDO2 242248Z 16013KT 32/17 A2968 RMK A01 T03200174  RH  042%=      5-min Rain = 0
KDO2 242249Z 16011KT 32/18 A2968 RMK A01 T03200175  RH  042%=      5-min Rain = 0
KDO2 242250Z 17011KT 32/18 A2968 RMK A01 T03210177  RH  042%=      5-min Rain = 0
KDO2 242251Z 17015KT 32/18 A2968 RMK A01 T03220176  RH  042%=      5-min Rain = 0
KDO2 242252Z 16014KT 32/17 A2968 RMK A01 T03220174  RH  041%=      5-min Rain = 0
KDO2 242253Z 16011KT 32/18 A2969 RMK A01 T03220175  RH  042%=      5-min Rain = 0
KDO2 242254Z 15016KT 32/17 A2968 RMK A01 T03220173  RH  041%=      5-min Rain = 0
KDO2 242255Z 16012KT 32/17 A2968 RMK A01 T03210173  RH  041%=      5-min Rain = 0
KDO2 242256Z 15015KT 32/17 A2968 RMK A01 T03200173  RH  041%=      5-min Rain = 0
KDO2 242257Z 15016KT 32/17 A2968 RMK A01 T03200170  RH  041%=      5-min Rain = 0
KDO2 242258Z 15013KT 32/17 A2968 RMK A01 T03190169  RH  041%=      5-min Rain = 0
KDO2 242259Z 15011KT 32/17 A2968 RMK A01 T03180171  RH  041%=      5-min Rain = 0
KDO2 242300Z 14012KT 32/17 A2968 RMK A01 T03190172  RH  042%=      5-min Rain = 0
KDO2 242301Z 15013KT 32/17 A2968 RMK A01 T03190172  RH  041%=      5-min Rain = 0
KDO2 242302Z 16015KT 32/17 A2968 RMK A01 T03190172  RH  042%=      5-min Rain = 0
KDO2 242303Z 17014KT 32/17 A2968 RMK A01 T03180172  RH  042%=      5-min Rain = 0
KDO2 242304Z 17014KT 32/17 A2968 RMK A01 T03180171  RH  041%=      5-min Rain = 0
KDO2 242305Z 16014KT 32/17 A2968 RMK A01 T03170171  RH  042%=      5-min Rain = 0
KDO2 242306Z 15013KT 32/17 A2968 RMK A01 T03170172  RH  042%=      5-min Rain = 0
KDO2 242307Z 16013KT 32/17 A2968 RMK A01 T03160171  RH  042%=      5-min Rain = 0
KDO2 242308Z 15012KT 32/17 A2968 RMK A01 T03160171  RH  042%=      5-min Rain = 0
KDO2 242309Z 15012KT 32/17 A2968 RMK A01 T03160172  RH  042%=      5-min Rain = 0
KDO2 242310Z 15010KT 32/17 A2968 RMK A01 T03160172  RH  042%=      5-min Rain = 0
KDO2 242311Z 16010KT 32/17 A2968 RMK A01 T03160173  RH  043%=      5-min Rain = 0
KDO2 242312Z 16012KT 32/17 A2968 RMK A01 T03160173  RH  042%=      5-min Rain = 0
KDO2 242313Z 17013KT 32/17 A2968 RMK A01 T03170173  RH  042%=      5-min Rain = 0
KDO2 242314Z 16011KT 32/17 A2968 RMK A01 T03170173  RH  042%=      5-min Rain = 0
KDO2 242315Z 17010KT 32/17 A2968 RMK A01 T03170174  RH  042%=      5-min Rain = 0
KDO2 242316Z 16011KT 32/18 A2967 RMK A01 T03170175  RH  043%=      5-min Rain = 0
KDO2 242317Z 16010KT 32/18 A2967 RMK A01 T03170175  RH  043%=      5-min Rain = 0
KDO2 242318Z 16014KT 32/18 A2967 RMK A01 T03170175  RH  043%=      5-min Rain = 0
KDO2 242319Z 16014KT 32/17 A2967 RMK A01 T03170174  RH  042%=      5-min Rain = 0
KDO2 242320Z 16013KT 32/17 A2967 RMK A01 T03170174  RH  042%=      5-min Rain = 0
KDO2 242321Z 16011KT 32/17 A2967 RMK A01 T03160174  RH  043%=      5-min Rain = 0
KDO2 242322Z 17011KT 32/18 A2967 RMK A01 T03160175  RH  043%=      5-min Rain = 0
KDO2 242323Z 17012KT 32/18 A2968 RMK A01 T03170175  RH  043%=      5-min Rain = 0
KDO2 242324Z 17014KT 32/18 A2968 RMK A01 T03170175  RH  043%=      5-min Rain = 0
KDO2 242325Z 16013KT 32/17 A2968 RMK A01 T03170173  RH  042%=      5-min Rain = 0
KDO2 242326Z 16012KT 32/17 A2967 RMK A01 T03160173  RH  042%=      5-min Rain = 0
KDO2 242327Z 16012KT 32/17 A2967 RMK A01 T03160173  RH  042%=      5-min Rain = 0
KDO2 242328Z 16015KT 32/17 A2967 RMK A01 T03160170  RH  042%=      5-min Rain = 0
KDO2 242329Z 16013KT 32/17 A2967 RMK A01 T03150170  RH  042%=      5-min Rain = 0
KDO2 242330Z 16012KT 31/17 A2967 RMK A01 T03140172  RH  043%=      5-min Rain = 0
KDO2 242331Z 16011KT 31/17 A2968 RMK A01 T03140172  RH  043%=      5-min Rain = 0
KDO2 242332Z 16012KT 32/17 A2968 RMK A01 T03150173  RH  043%=      5-min Rain = 0
KDO2 242333Z 15009KT 32/17 A2968 RMK A01 T03150174  RH  043%=      5-min Rain = 0
KDO2 242334Z 15012KT 32/18 A2968 RMK A01 T03150176  RH  044%=      5-min Rain = 0
KDO2 242335Z 16013KT 31/18 A2968 RMK A01 T03140176  RH  044%=      5-min Rain = 0
KDO2 242336Z 15013KT 31/18 A2968 RMK A01 T03130175  RH  044%=      5-min Rain = 0
KDO2 242337Z 15015KT 31/18 A2968 RMK A01 T03130175  RH  044%=      5-min Rain = 0
KDO2 242338Z 15013KT 31/17 A2967 RMK A01 T03120174  RH  044%=      5-min Rain = 0
KDO2 242339Z 15012KT 31/18 A2968 RMK A01 T03120175  RH  044%=      5-min Rain = 0
KDO2 242340Z 15011KT 31/18 A2967 RMK A01 T03120175  RH  044%=      5-min Rain = 0
KDO2 242341Z 16011KT 31/18 A2967 RMK A01 T03120176  RH  044%=      5-min Rain = 0
KDO2 242342Z 16010KT 31/18 A2967 RMK A01 T03120176  RH  044%=      5-min Rain = 0
KDO2 242343Z 16009KT 31/18 A2967 RMK A01 T03120176  RH  044%=      5-min Rain = 0
KDO2 242344Z 17008KT 31/18 A2967 RMK A01 T03110177  RH  045%=      5-min Rain = 0
KDO2 242345Z 17009KT 31/18 A2967 RMK A01 T03110177  RH  045%=      5-min Rain = 0
KDO2 242346Z 15010G15KT 31/18 A2967 RMK A01 T03110177  RH  045%=      5-min Rain = 0
KDO2 242347Z 16013KT 31/18 A2967 RMK A01 T03110175  RH  044%=      5-min Rain = 0
KDO2 242348Z 16011KT 31/18 A2967 RMK A01 T03110175  RH  044%=      5-min Rain = 0
KDO2 242349Z 16010KT 31/18 A2967 RMK A01 T03110175  RH  044%=      5-min Rain = 0
KDO2 242350Z 15011KT 31/18 A2967 RMK A01 T03110176  RH  045%=      5-min Rain = 0
KDO2 242351Z 15011KT 31/18 A2967 RMK A01 T03110176  RH  045%=      5-min Rain = 0
KDO2 242352Z 14012KT 31/18 A2966 RMK A01 T03100175  RH  044%=      5-min Rain = 0
KDO2 242353Z 15011KT 31/18 A2966 RMK A01 T03100175  RH  045%=      5-min Rain = 0
KDO2 242354Z 15014KT 31/18 A2966 RMK A01 T03100175  RH  045%=      5-min Rain = 0
KDO2 242355Z 14013KT 31/18 A2966 RMK A01 T03090175  RH  045%=      5-min Rain = 0
KDO2 242356Z 14012KT 31/18 A2966 RMK A01 T03090176  RH  045%=      5-min Rain = 0
KDO2 242357Z 14011KT 31/18 A2966 RMK A01 T03080176  RH  045%=      5-min Rain = 0
KDO2 242358Z 15013KT 31/18 A2965 RMK A01 T03080177  RH  045%=      5-min Rain = 0
KDO2 242359Z 14011KT 31/18 A2966 RMK A01 T03080177  RH  046%=      5-min Rain = 0
KDO2 250000Z 14011KT 31/18 A2966 RMK A01 T03070178  RH  046%=      5-min Rain = 0
KDO2 250001Z 14011KT 31/18 A2966 RMK A01 T03070178  RH  046%=      5-min Rain = 0
KDO2 250002Z 14013KT 31/18 A2966 RMK A01 T03070178  RH  046%=      5-min Rain = 0
KDO2 250003Z 15014KT 31/18 A2966 RMK A01 T03070177  RH  046%=      5-min Rain = 0
KDO2 250004Z 15013KT 31/18 A2966 RMK A01 T03070177  RH  046%=      5-min Rain = 0
KDO2 250005Z 15013KT 31/18 A2965 RMK A01 T03060177  RH  046%=      5-min Rain = 0
KDO2 250006Z 15013KT 31/18 A2965 RMK A01 T03060178  RH  046%=      5-min Rain = 0
KDO2 250007Z 15012KT 31/18 A2965 RMK A01 T03060178  RH  046%=      5-min Rain = 0
KDO2 250008Z 14011KT 31/18 A2965 RMK A01 T03060178  RH  046%=      5-min Rain = 0
KDO2 250009Z 14010KT 31/18 A2965 RMK A01 T03060178  RH  046%=      5-min Rain = 0
KDO2 250010Z 14010KT 31/18 A2965 RMK A01 T03060179  RH  047%=      5-min Rain = 0
KDO2 250011Z 14012KT 31/18 A2965 RMK A01 T03050178  RH  047%=      5-min Rain = 0
KDO2 250012Z 15013KT 31/18 A2965 RMK A01 T03050178  RH  047%=      5-min Rain = 0
KDO2 250013Z 14014KT 31/18 A2965 RMK A01 T03050178  RH  046%=      5-min Rain = 0
KDO2 250014Z 15013KT 30/18 A2965 RMK A01 T03040176  RH  046%=      5-min Rain = 0
KDO2 250015Z 15011KT 31/18 A2965 RMK A01 T03050177  RH  046%=      5-min Rain = 0
KDO2 250016Z 15013KT 31/18 A2965 RMK A01 T03050177  RH  046%=      5-min Rain = 0
KDO2 250017Z 15012KT 30/18 A2965 RMK A01 T03040177  RH  047%=      5-min Rain = 0
KDO2 250018Z 14012KT 30/18 A2965 RMK A01 T03040177  RH  047%=      5-min Rain = 0
KDO2 250019Z 15011KT 30/18 A2965 RMK A01 T03040177  RH  047%=      5-min Rain = 0
KDO2 250020Z 15010KT 30/18 A2965 RMK A01 T03030177  RH  047%=      5-min Rain = 0
KDO2 250021Z 15011KT 30/18 A2965 RMK A01 T03030178  RH  047%=      5-min Rain = 0
KDO2 250022Z 16012KT 30/18 A2965 RMK A01 T03030177  RH  047%=      5-min Rain = 0
KDO2 250023Z 15011KT 30/18 A2965 RMK A01 T03030177  RH  047%=      5-min Rain = 0
KDO2 250024Z 16011KT 30/18 A2965 RMK A01 T03030178  RH  047%=      5-min Rain = 0
KDO2 250025Z 15012KT 30/18 A2965 RMK A01 T03020178  RH  047%=      5-min Rain = 0
KDO2 250026Z 15012KT 30/18 A2965 RMK A01 T03020178  RH  047%=      5-min Rain = 0
KDO2 250027Z 16012KT 30/18 A2965 RMK A01 T03020178  RH  047%=      5-min Rain = 0
KDO2 250028Z 16011KT 30/18 A2965 RMK A01 T03020178  RH  047%=      5-min Rain = 0
KDO2 250029Z 16009KT 30/18 A2965 RMK A01 T03020178  RH  048%=      5-min Rain = 0
KDO2 250030Z 16011KT 30/18 A2966 RMK A01 T03020179  RH  048%=      5-min Rain = 0
KDO2 250031Z 17011KT 30/18 A2966 RMK A01 T03010178  RH  048%=      5-min Rain = 0
KDO2 250032Z 18009KT 30/18 A2966 RMK A01 T03010179  RH  048%=      5-min Rain = 0
KDO2 250033Z 18010KT 30/18 A2967 RMK A01 T03010180  RH  048%=      5-min Rain = 0
KDO2 250034Z 21013G21KT 30/18 A2968 RMK A01 T03010179  RH  048%=      5-min Rain = 0
KDO2 250035Z 25028G36KT 30/16 A297 RMK A01 T02980162  RH  044%=      5-min Rain = 0
KDO2 250036Z 26029G35KT 27/13 A2969 RMK A01 T02680130  RH  043%=      5-min Rain = 0
KDO2 250037Z 25031G37KT 25/13 A2969 RMK A01 T02470128  RH  048%=      5-min Rain = 0
KDO2 250038Z 25032G37KT 24/13 A2969 RMK A01 T02380129  RH  051%=      5-min Rain = 0
KDO2 250039Z 25025G32KT 23/13 A2969 RMK A01 T02340130  RH  052%=      5-min Rain = 0
KDO2 250040Z 25032G40KT 23/13 A2969 RMK A01 T02320131  RH  053%=      5-min Rain = 0
KDO2 250041Z 26030G36KT 23/13 A2969 RMK A01 T02290132  RH  054%=      5-min Rain = 0
KDO2 250042Z 25030G37KT 23/13 A2969 RMK A01 T02280133  RH  055%=      5-min Rain = 0
KDO2 250043Z 25033G41KT 23/13 A2969 RMK A01 T02280134  RH  055%=      5-min Rain = 0
KDO2 250044Z 26029G38KT 23/13 A297 RMK A01 T02270134  RH  056%=      5-min Rain = 0
KDO2 250045Z 25030G37KT 23/14 A2969 RMK A01 T02250135  RH  057%=      5-min Rain = 0
KDO2 250046Z 26026G34KT 23/14 A2969 RMK A01 T02250136  RH  057%=      5-min Rain = 0
KDO2 250047Z 26033G41KT 22/14 A2969 RMK A01 T02240136  RH  057%=      5-min Rain = 0
KDO2 250048Z 26031G39KT 22/14 A2969 RMK A01 T02230137  RH  058%=      5-min Rain = 0
KDO2 250049Z 25034KT 22/14 A2969 RMK A01 T02210137  RH  059%=      5-min Rain = 0
KDO2 250050Z 25026G33KT 22/14 A2969 RMK A01 T02210138  RH  060%=      5-min Rain = 0
KDO2 250051Z 24026G32KT 22/14 A2969 RMK A01 T02190138  RH  060%=      5-min Rain = 0
KDO2 250052Z 26025KT 22/14 A2969 RMK A01 T02190138  RH  060%=      5-min Rain = 0
KDO2 250053Z 25028G35KT 22/14 A2969 RMK A01 T02180137  RH  060%=      5-min Rain = 0
KDO2 250054Z 24029KT 22/14 A2969 RMK A01 T02180135  RH  059%=      5-min Rain = 0
KDO2 250055Z 24024G29KT 22/14 A2969 RMK A01 T02180135  RH  059%=      5-min Rain = 0
KDO2 250056Z 25025G33KT 22/14 A2969 RMK A01 T02180136  RH  060%=      5-min Rain = 0
KDO2 250057Z 24024G29KT 22/14 A297 RMK A01 T02170135  RH  060%=      5-min Rain = 0
KDO2 250058Z 24022G32KT 22/14 A2969 RMK A01 T02170135  RH  060%=      5-min Rain = 0
KDO2 250059Z 25025G30KT 22/14 A2969 RMK A01 T02160135  RH  060%=      5-min Rain = 0
KDO2 250100Z 25029G38KT 22/14 A297 RMK A01 T02160135  RH  060%=      5-min Rain = 0
KDO2 250101Z 25030G36KT 21/14 A297 RMK A01 T02140135  RH  061%=      5-min Rain = 0
KDO2 250102Z 25031G37KT 21/14 A297 RMK A01 T02120136  RH  062%=      5-min Rain = 0
KDO2 250103Z 25031G42KT 21/14 A297 RMK A01 T02090139  RH  064%=      5-min Rain = 0
KDO2 250104Z 25027KT 21/14 A297 RMK A01 T02050141  RH  067%=      5-min Rain = 0
KDO2 250105Z 26030G36KT 20/14 A297 RMK A01 T02000144  RH  070%=      5-min Rain = 0
KDO2 250106Z 26025G32KT 20/15 A297 RMK A01 T01960148  RH  074%=      5-min Rain = 0
KDO2 250107Z 26023G28KT 19/15 A2969 RMK A01 T01910151  RH  077%=      5-min Rain = 0
KDO2 250108Z 26023G29KT 19/15 A2969 RMK A01 T01880152  RH  079%=      5-min Rain = 0
KDO2 250109Z 27024G29KT 19/15 A2969 RMK A01 T01860153  RH  081%=      5-min Rain = 0
KDO2 250110Z 26018G25KT 18/16 A2969 RMK A01 T01830155  RH  084%=      5-min Rain = 0.01
KDO2 250111Z 26022G30KT 18/16 A2969 RMK A01 T01800156  RH  086%=      5-min Rain = 0.01
KDO2 250112Z 26026KT 18/16 A2968 RMK A01 T01780156  RH  087%=      5-min Rain = 0.02
KDO2 250113Z 26030G40KT 18/15 A2968 RMK A01 T01760154  RH  087%=      5-min Rain = 0.01
KDO2 250114Z 26024KT 18/15 A2969 RMK A01 T01760154  RH  087%=      5-min Rain = 0.02
KDO2 250115Z 26025KT 17/16 A2969 RMK A01 T01740155  RH  089%=      5-min Rain = 0.01
KDO2 250116Z 26024KT 17/16 A2969 RMK A01 T01730155  RH  089%=      5-min Rain = 0.01
KDO2 250117Z 26028G35KT 17/16 A2969 RMK A01 T01730155  RH  089%=      5-min Rain = 0.01
KDO2 250118Z 26029G34KT 17/15 A2969 RMK A01 T01730153  RH  088%=      5-min Rain = 0.01
KDO2 250119Z 25028KT 17/15 A2969 RMK A01 T01740153  RH  087%=      5-min Rain = 0.02
KDO2 250120Z 26024G29KT 17/15 A297 RMK A01 T01720154  RH  089%=      5-min Rain = 0.02
KDO2 250121Z 25022KT 17/16 A297 RMK A01 T01710155  RH  090%=      5-min Rain = 0.02
KDO2 250122Z 26020KT 17/16 A297 RMK A01 T01700156  RH  091%=      5-min Rain = 0.01
KDO2 250123Z 26018KT 17/16 A297 RMK A01 T01700157  RH  092%=      5-min Rain = 0.01
KDO2 250124Z 26020KT 17/16 A297 RMK A01 T01700156  RH  092%=      5-min Rain = 0.01
KDO2 250125Z 26017KT 17/16 A297 RMK A01 T01700156  RH  091%=      5-min Rain = 0
KDO2 250126Z 26018KT 17/16 A297 RMK A01 T01700156  RH  091%=      5-min Rain = 0.01
KDO2 250127Z 26019KT 17/16 A2969 RMK A01 T01710157  RH  091%=      5-min Rain = 0
KDO2 250128Z 26019KT 17/16 A2969 RMK A01 T01720157  RH  090%=      5-min Rain = 0
KDO2 250129Z 26019KT 17/16 A2969 RMK A01 T01730156  RH  090%=      5-min Rain = 0
KDO2 250130Z 25017G22KT 18/16 A2969 RMK A01 T01750157  RH  089%=      5-min Rain = 0
KDO2 250131Z 25017KT 18/16 A2969 RMK A01 T01760158  RH  089%=      5-min Rain = 0.01
KDO2 250132Z 25017KT 18/16 A297 RMK A01 T01760157  RH  089%=      5-min Rain = 0
KDO2 250133Z 25017KT 18/16 A297 RMK A01 T01770157  RH  088%=      5-min Rain = 0
KDO2 250134Z 24017KT 18/16 A297 RMK A01 T01770157  RH  088%=      5-min Rain = 0
KDO2 250135Z 24015G21KT 18/16 A297 RMK A01 T01770158  RH  088%=      5-min Rain = 0.01
KDO2 250136Z 25014KT 18/16 A297 RMK A01 T01770159  RH  089%=      5-min Rain = 0
KDO2 250137Z 25013KT 18/16 A297 RMK A01 T01780158  RH  088%=      5-min Rain = 0
KDO2 250138Z 25013KT 18/16 A297 RMK A01 T01780159  RH  089%=      5-min Rain = 0
KDO2 250139Z 25011KT 18/16 A297 RMK A01 T01780159  RH  089%=      5-min Rain = 0
KDO2 250140Z 25012KT 18/16 A2969 RMK A01 T01780159  RH  089%=      5-min Rain = 0
KDO2 250141Z 25012KT 18/16 A2969 RMK A01 T01770159  RH  089%=      5-min Rain = 0
KDO2 250142Z 25011KT 18/16 A2969 RMK A01 T01770158  RH  089%=      5-min Rain = 0
KDO2 250143Z 25013KT 18/16 A2969 RMK A01 T01770158  RH  089%=      5-min Rain = 0
KDO2 250144Z 26011KT 18/16 A2968 RMK A01 T01770158  RH  088%=      5-min Rain = 0
KDO2 250145Z 26012KT 18/16 A2968 RMK A01 T01780159  RH  089%=      5-min Rain = 0
KDO2 250146Z 27013KT 18/16 A2968 RMK A01 T01770158  RH  088%=      5-min Rain = 0
KDO2 250147Z 26012KT 18/16 A2968 RMK A01 T01780158  RH  088%=      5-min Rain = 0
KDO2 250148Z 27011KT 18/16 A2968 RMK A01 T01770157  RH  088%=      5-min Rain = 0
KDO2 250149Z 26011KT 18/16 A2968 RMK A01 T01770158  RH  088%=      5-min Rain = 0.01
KDO2 250150Z 26011KT 18/16 A2968 RMK A01 T01780157  RH  088%=      5-min Rain = 0
KDO2 250151Z 27010KT 18/16 A2967 RMK A01 T01780157  RH  088%=      5-min Rain = 0
KDO2 250152Z 28010KT 18/16 A2967 RMK A01 T01780159  RH  088%=      5-min Rain = 0
KDO2 250153Z 27010KT 18/16 A2967 RMK A01 T01780159  RH  088%=      5-min Rain = 0
KDO2 250154Z 27009KT 18/16 A2967 RMK A01 T01780157  RH  087%=      5-min Rain = 0
KDO2 250155Z 27008KT 18/16 A2967 RMK A01 T01790157  RH  087%=      5-min Rain = 0
KDO2 250156Z 27008KT 18/16 A2967 RMK A01 T01800158  RH  087%=      5-min Rain = 0
KDO2 250157Z 27007KT 18/16 A2967 RMK A01 T01800158  RH  087%=      5-min Rain = 0
KDO2 250158Z 28007KT 18/16 A2967 RMK A01 T01800159  RH  087%=      5-min Rain = 0
KDO2 250159Z 28008KT 18/16 A2968 RMK A01 T01800159  RH  088%=      5-min Rain = 0
KDO2 250200Z 28007KT 18/16 A2968 RMK A01 T01800159  RH  087%=      5-min Rain = 0
KDO2 250201Z 26006KT 18/16 A2969 RMK A01 T01800159  RH  087%=      5-min Rain = 0
KDO2 250202Z 24006KT 18/16 A2969 RMK A01 T01810160  RH  088%=      5-min Rain = 0
KDO2 250203Z 24007KT 18/16 A2969 RMK A01 T01810161  RH  088%=      5-min Rain = 0
KDO2 250204Z 24005KT 18/16 A297 RMK A01 T01810160  RH  087%=      5-min Rain = 0
KDO2 250205Z 24004KT 18/16 A297 RMK A01 T01810160  RH  087%=      5-min Rain = 0
KDO2 250206Z 21003KT 18/16 A2971 RMK A01 T01810160  RH  087%=      5-min Rain = 0
KDO2 250207Z 18005KT 18/16 A2971 RMK A01 T01810160  RH  087%=      5-min Rain = 0
KDO2 250208Z 15006KT 18/16 A2972 RMK A01 T01820161  RH  088%=      5-min Rain = 0
KDO2 250209Z 12006KT 18/16 A2972 RMK A01 T01820162  RH  088%=      5-min Rain = 0
KDO2 250210Z 11008KT 18/16 A2972 RMK A01 T01820163  RH  088%=      5-min Rain = 0.01
KDO2 250211Z 10011KT 18/16 A2973 RMK A01 T01830164  RH  089%=      5-min Rain = 0
KDO2 250212Z 09012KT 18/16 A2973 RMK A01 T01830163  RH  088%=      5-min Rain = 0
KDO2 250213Z 09015KT 18/17 A2973 RMK A01 T01820165  RH  089%=      5-min Rain = 0
KDO2 250214Z 09015KT 18/16 A2973 RMK A01 T01810164  RH  090%=      5-min Rain = 0
KDO2 250215Z 09017KT 18/16 A2972 RMK A01 T01790164  RH  091%=      5-min Rain = 0
KDO2 250216Z 08016KT 18/17 A2972 RMK A01 T01780165  RH  092%=      5-min Rain = 0
KDO2 250217Z 08013KT 18/17 A2972 RMK A01 T01770166  RH  093%=      5-min Rain = 0
KDO2 250218Z 08013KT 18/17 A2972 RMK A01 T01770165  RH  093%=      5-min Rain = 0
KDO2 250219Z 08013KT 18/17 A2972 RMK A01 T01760165  RH  093%=      5-min Rain = 0
KDO2 250220Z 08013KT 18/17 A2971 RMK A01 T01760165  RH  093%=      5-min Rain = 0.01
KDO2 250221Z 07013KT 18/16 A2971 RMK A01 T01760164  RH  093%=      5-min Rain = 0
KDO2 250222Z 07014KT 18/16 A2971 RMK A01 T01760164  RH  092%=      5-min Rain = 0
KDO2 250223Z 08014KT 18/16 A297 RMK A01 T01760163  RH  092%=      5-min Rain = 0
KDO2 250224Z 08013KT 18/16 A2971 RMK A01 T01760162  RH  092%=      5-min Rain = 0.01
KDO2 250225Z 09014KT 18/16 A2971 RMK A01 T01760164  RH  092%=      5-min Rain = 0
KDO2 250226Z 08016KT 18/16 A2971 RMK A01 T01760164  RH  092%=      5-min Rain = 0
KDO2 250227Z 08016KT 18/16 A2971 RMK A01 T01760164  RH  093%=      5-min Rain = 0
KDO2 250228Z 08017KT 18/16 A2971 RMK A01 T01760163  RH  093%=      5-min Rain = 0.01
KDO2 250229Z 08016KT 18/16 A2971 RMK A01 T01750163  RH  093%=      5-min Rain = 0
KDO2 250230Z 08015KT 18/16 A2971 RMK A01 T01750164  RH  093%=      5-min Rain = 0
KDO2 250231Z 08016G21KT 18/16 A2971 RMK A01 T01750164  RH  094%=      5-min Rain = 0
KDO2 250232Z 08019KT 17/16 A297 RMK A01 T01740164  RH  093%=      5-min Rain = 0
KDO2 250233Z 08019KT 17/16 A297 RMK A01 T01740163  RH  093%=      5-min Rain = 0.01
KDO2 250234Z 08021KT 17/16 A297 RMK A01 T01730163  RH  094%=      5-min Rain = 0
KDO2 250235Z 08019KT 17/16 A297 RMK A01 T01730162  RH  094%=      5-min Rain = 0
KDO2 250236Z 08019KT 17/16 A297 RMK A01 T01730163  RH  094%=      5-min Rain = 0.01
KDO2 250237Z 08016KT 17/16 A297 RMK A01 T01730163  RH  094%=      5-min Rain = 0
KDO2 250238Z 08017KT 17/16 A297 RMK A01 T01730163  RH  094%=      5-min Rain = 0
KDO2 250239Z 08017KT 17/16 A2969 RMK A01 T01720162  RH  094%=      5-min Rain = 0
KDO2 250240Z 08017KT 17/16 A2969 RMK A01 T01720162  RH  094%=      5-min Rain = 0.01
KDO2 250241Z 08020KT 17/16 A2968 RMK A01 T01730162  RH  094%=      5-min Rain = 0
KDO2 250242Z 08017KT 17/16 A2968 RMK A01 T01730162  RH  093%=      5-min Rain = 0
KDO2 250243Z 08017KT 17/16 A2968 RMK A01 T01720162  RH  094%=      5-min Rain = 0
KDO2 250244Z 08016KT 17/16 A2968 RMK A01 T01720162  RH  093%=      5-min Rain = 0
KDO2 250245Z 08014G19KT 17/16 A2968 RMK A01 T01720162  RH  094%=      5-min Rain = 0
KDO2 250246Z 07015KT 17/16 A2967 RMK A01 T01720162  RH  093%=      5-min Rain = 0.01
KDO2 250247Z 07013KT 17/16 A2968 RMK A01 T01720161  RH  093%=      5-min Rain = 0
KDO2 250248Z 07012KT 17/16 A2969 RMK A01 T01720162  RH  093%=      5-min Rain = 0
KDO2 250249Z 07010KT 17/16 A2969 RMK A01 T01720162  RH  093%=      5-min Rain = 0
KDO2 250250Z 08010KT 17/16 A297 RMK A01 T01720162  RH  094%=      5-min Rain = 0
KDO2 250251Z 08010KT 17/16 A297 RMK A01 T01730162  RH  094%=      5-min Rain = 0
KDO2 250252Z 08013KT 17/16 A297 RMK A01 T01730162  RH  094%=      5-min Rain = 0
KDO2 250253Z 08015KT 17/16 A2969 RMK A01 T01730162  RH  093%=      5-min Rain = 0
KDO2 250254Z 08017KT 17/16 A2969 RMK A01 T01730162  RH  093%=      5-min Rain = 0
KDO2 250255Z 08016KT 17/16 A297 RMK A01 T01730162  RH  093%=      5-min Rain = 0
KDO2 250256Z 08015KT 17/16 A297 RMK A01 T01730162  RH  093%=      5-min Rain = 0
KDO2 250257Z 07015KT 17/16 A297 RMK A01 T01730162  RH  093%=      5-min Rain = 0
KDO2 250258Z 07015KT 17/16 A297 RMK A01 T01730162  RH  093%=      5-min Rain = 0
KDO2 250259Z 07015KT 17/16 A297 RMK A01 T01730162  RH  093%=      5-min Rain = 0
KDO2 250300Z 07015KT 17/16 A297 RMK A01 T01730162  RH  093%=      5-min Rain = 0
KDO2 250301Z 07016KT 17/16 A297 RMK A01 T01730161  RH  093%=      5-min Rain = 0
KDO2 250302Z 07016KT 17/16 A297 RMK A01 T01730161  RH  093%=      5-min Rain = 0
KDO2 250303Z 07015KT 17/16 A297 RMK A01 T01720161  RH  093%=      5-min Rain = 0
KDO2 250304Z 08017KT 17/16 A297 RMK A01 T01720161  RH  093%=      5-min Rain = 0
KDO2 250305Z 07015KT 17/16 A2971 RMK A01 T01720160  RH  092%=      5-min Rain = 0
KDO2 250306Z 08013KT 17/16 A2971 RMK A01 T01720160  RH  093%=      5-min Rain = 0
KDO2 250307Z 08015KT 17/16 A2971 RMK A01 T01720160  RH  093%=      5-min Rain = 0
KDO2 250308Z 08013KT 17/16 A2971 RMK A01 T01720160  RH  093%=      5-min Rain = 0
KDO2 250309Z 08013KT 17/16 A2971 RMK A01 T01720161  RH  093%=      5-min Rain = 0
KDO2 250310Z 08015KT 17/16 A2971 RMK A01 T01720160  RH  093%=      5-min Rain = 0
KDO2 250311Z 08014KT 17/16 A2971 RMK A01 T01720160  RH  092%=      5-min Rain = 0
KDO2 250312Z 07015KT 17/16 A2971 RMK A01 T01720160  RH  092%=      5-min Rain = 0
KDO2 250313Z 08014KT 17/16 A2971 RMK A01 T01720160  RH  092%=      5-min Rain = 0
KDO2 250314Z 07014KT 17/16 A2971 RMK A01 T01730160  RH  092%=      5-min Rain = 0
KDO2 250315Z 07014KT 17/16 A2972 RMK A01 T01730160  RH  092%=      5-min Rain = 0
KDO2 250316Z 07017KT 17/16 A2972 RMK A01 T01730160  RH  092%=      5-min Rain = 0
KDO2 250317Z 08017KT 17/16 A2972 RMK A01 T01730159  RH  092%=      5-min Rain = 0
KDO2 250318Z 08016KT 17/16 A2972 RMK A01 T01730159  RH  091%=      5-min Rain = 0
KDO2 250319Z 08016KT 17/16 A2973 RMK A01 T01730159  RH  091%=      5-min Rain = 0
KDO2 250320Z 07015KT 17/16 A2973 RMK A01 T01730159  RH  091%=      5-min Rain = 0
KDO2 250321Z 08014KT 17/16 A2973 RMK A01 T01730159  RH  092%=      5-min Rain = 0
KDO2 250322Z 08015KT 17/16 A2974 RMK A01 T01730159  RH  091%=      5-min Rain = 0
KDO2 250323Z 08014KT 17/16 A2974 RMK A01 T01730159  RH  092%=      5-min Rain = 0
KDO2 250324Z 07014KT 17/16 A2974 RMK A01 T01730159  RH  092%=      5-min Rain = 0
KDO2 250325Z 08013KT 17/16 A2974 RMK A01 T01730159  RH  091%=      5-min Rain = 0
KDO2 250326Z 08012KT 17/16 A2974 RMK A01 T01730159  RH  092%=      5-min Rain = 0
KDO2 250327Z 08012KT 17/16 A2974 RMK A01 T01740160  RH  092%=      5-min Rain = 0
KDO2 250328Z 09014KT 17/16 A2975 RMK A01 T01740160  RH  091%=      5-min Rain = 0
KDO2 250329Z 09012KT 17/16 A2975 RMK A01 T01740159  RH  091%=      5-min Rain = 0
KDO2 250330Z 09012KT 17/16 A2976 RMK A01 T01740160  RH  091%=      5-min Rain = 0
KDO2 250331Z 09013KT 18/16 A2976 RMK A01 T01750160  RH  091%=      5-min Rain = 0
KDO2 250332Z 11010KT 18/16 A2976 RMK A01 T01760160  RH  091%=      5-min Rain = 0
KDO2 250333Z 11013KT 18/16 A2977 RMK A01 T01760161  RH  091%=      5-min Rain = 0
KDO2 250334Z 10011KT 18/16 A2977 RMK A01 T01760160  RH  090%=      5-min Rain = 0
KDO2 250335Z 11009KT 18/16 A2977 RMK A01 T01760161  RH  091%=      5-min Rain = 0
KDO2 250336Z 10010KT 18/16 A2977 RMK A01 T01770161  RH  091%=      5-min Rain = 0
KDO2 250337Z 11009KT 18/16 A2978 RMK A01 T01770161  RH  091%=      5-min Rain = 0
KDO2 250338Z 11008KT 18/16 A2978 RMK A01 T01760161  RH  091%=      5-min Rain = 0
KDO2 250339Z 11008KT 18/16 A2978 RMK A01 T01760161  RH  091%=      5-min Rain = 0
KDO2 250340Z 11008KT 18/16 A2978 RMK A01 T01770161  RH  091%=      5-min Rain = 0
KDO2 250341Z 10008KT 18/16 A2978 RMK A01 T01770161  RH  090%=      5-min Rain = 0
KDO2 250342Z 10008KT 18/16 A2979 RMK A01 T01770160  RH  090%=      5-min Rain = 0
KDO2 250343Z 09008KT 18/16 A2979 RMK A01 T01770161  RH  090%=      5-min Rain = 0
KDO2 250344Z 10009KT 18/16 A2979 RMK A01 T01770161  RH  090%=      5-min Rain = 0
KDO2 250345Z 10009KT 18/16 A2979 RMK A01 T01780161  RH  090%=      5-min Rain = 0
KDO2 250346Z 11009KT 18/16 A298 RMK A01 T01780162  RH  090%=      5-min Rain = 0
KDO2 250347Z 10010KT 18/16 A298 RMK A01 T01780161  RH  090%=      5-min Rain = 0
KDO2 250348Z 09009KT 18/16 A298 RMK A01 T01780160  RH  089%=      5-min Rain = 0
KDO2 250349Z 10008KT 18/16 A2981 RMK A01 T01780160  RH  089%=      5-min Rain = 0
KDO2 250350Z 10007KT 18/16 A2981 RMK A01 T01790162  RH  090%=      5-min Rain = 0
KDO2 250351Z 10007KT 18/16 A2981 RMK A01 T01790161  RH  090%=      5-min Rain = 0
KDO2 250352Z 09007KT 18/16 A2982 RMK A01 T01790162  RH  090%=      5-min Rain = 0
KDO2 250353Z 08006KT 18/16 A2982 RMK A01 T01790162  RH  090%=      5-min Rain = 0
KDO2 250354Z 08005KT 18/16 A2982 RMK A01 T01790162  RH  090%=      5-min Rain = 0
KDO2 250355Z 07006KT 18/16 A2982 RMK A01 T01790162  RH  090%=      5-min Rain = 0
KDO2 250356Z 07005KT 18/16 A2982 RMK A01 T01790163  RH  090%=      5-min Rain = 0
KDO2 250357Z 07005KT 18/16 A2982 RMK A01 T01790162  RH  090%=      5-min Rain = 0
KDO2 250358Z 07005KT 18/16 A2982 RMK A01 T01790162  RH  090%=      5-min Rain = 0
KDO2 250359Z 07008KT 18/16 A2982 RMK A01 T01790163  RH  090%=      5-min Rain = 0
KDO2 250400Z 07006KT 18/16 A2982 RMK A01 T01790162  RH  090%=      5-min Rain = 0
KDO2 250401Z 07005KT 18/16 A2982 RMK A01 T01790164  RH  091%=      5-min Rain = 0
KDO2 250402Z 07009KT 18/16 A2983 RMK A01 T01790164  RH  091%=      5-min Rain = 0
KDO2 250403Z 07007KT 18/16 A2983 RMK A01 T01790164  RH  091%=      5-min Rain = 0
KDO2 250404Z 07006KT 18/16 A2983 RMK A01 T01790164  RH  091%=      5-min Rain = 0
KDO2 250405Z 07007KT 18/16 A2983 RMK A01 T01790164  RH  091%=      5-min Rain = 0
KDO2 250406Z 07008KT 18/16 A2983 RMK A01 T01790164  RH  091%=      5-min Rain = 0
KDO2 250407Z 06008KT 18/17 A2983 RMK A01 T01790165  RH  092%=      5-min Rain = 0
KDO2 250408Z 07008KT 18/17 A2983 RMK A01 T01790166  RH  092%=      5-min Rain = 0
KDO2 250409Z 06009KT 18/17 A2983 RMK A01 T01790166  RH  092%=      5-min Rain = 0
KDO2 250410Z 06008KT 18/17 A2983 RMK A01 T01790167  RH  092%=      5-min Rain = 0
KDO2 250411Z 06007KT 18/17 A2983 RMK A01 T01790167  RH  092%=      5-min Rain = 0
KDO2 250412Z 06007KT 18/17 A2983 RMK A01 T01780166  RH  093%=      5-min Rain = 0
KDO2 250413Z 07008KT 18/17 A2983 RMK A01 T01780166  RH  093%=      5-min Rain = 0
KDO2 250414Z 07008KT 18/17 A2983 RMK A01 T01780167  RH  093%=      5-min Rain = 0
KDO2 250415Z 06008KT 18/17 A2983 RMK A01 T01780167  RH  093%=      5-min Rain = 0
KDO2 250416Z 06007KT 18/17 A2983 RMK A01 T01780167  RH  093%=      5-min Rain = 0
KDO2 250417Z 06008KT 18/17 A2983 RMK A01 T01780167  RH  093%=      5-min Rain = 0
KDO2 250418Z 06007KT 18/17 A2983 RMK A01 T01780166  RH  093%=      5-min Rain = 0
KDO2 250419Z 06007KT 18/17 A2983 RMK A01 T01780167  RH  093%=      5-min Rain = 0
KDO2 250420Z 06008KT 18/17 A2983 RMK A01 T01780167  RH  093%=      5-min Rain = 0
KDO2 250421Z 05008KT 18/17 A2983 RMK A01 T01780168  RH  094%=      5-min Rain = 0
KDO2 250422Z 05008KT 18/17 A2983 RMK A01 T01780168  RH  093%=      5-min Rain = 0
KDO2 250423Z 05008KT 18/17 A2983 RMK A01 T01780167  RH  093%=      5-min Rain = 0
KDO2 250424Z 05009KT 18/17 A2982 RMK A01 T01780167  RH  093%=      5-min Rain = 0
KDO2 250425Z 05009KT 18/17 A2982 RMK A01 T01780168  RH  094%=      5-min Rain = 0
KDO2 250426Z 05011KT 18/17 A2982 RMK A01 T01780168  RH  094%=      5-min Rain = 0
KDO2 250427Z 05010KT 18/17 A2982 RMK A01 T01780167  RH  093%=      5-min Rain = 0
KDO2 250428Z 05009KT 18/17 A2982 RMK A01 T01780167  RH  093%=      5-min Rain = 0
KDO2 250429Z 05008KT 18/17 A2982 RMK A01 T01780167  RH  093%=      5-min Rain = 0
KDO2 250430Z 04009KT 18/17 A2982 RMK A01 T01780168  RH  094%=      5-min Rain = 0
KDO2 250431Z 04008KT 18/17 A2982 RMK A01 T01780168  RH  094%=      5-min Rain = 0
KDO2 250432Z 04009KT 18/17 A2982 RMK A01 T01780168  RH  094%=      5-min Rain = 0
KDO2 250433Z 05010KT 18/17 A2982 RMK A01 T01780168  RH  093%=      5-min Rain = 0
KDO2 250434Z 05011KT 18/17 A2982 RMK A01 T01780167  RH  093%=      5-min Rain = 0
KDO2 250435Z 05009KT 18/17 A2982 RMK A01 T01780166  RH  093%=      5-min Rain = 0
KDO2 250436Z 06009KT 18/17 A2982 RMK A01 T01780166  RH  093%=      5-min Rain = 0
KDO2 250437Z 05009KT 18/17 A2982 RMK A01 T01780166  RH  093%=      5-min Rain = 0
KDO2 250438Z 05010KT 18/17 A2982 RMK A01 T01780166  RH  093%=      5-min Rain = 0
KDO2 250439Z 06011KT 18/17 A2982 RMK A01 T01780166  RH  092%=      5-min Rain = 0
KDO2 250440Z 06010KT 18/17 A2982 RMK A01 T01780165  RH  092%=      5-min Rain = 0
KDO2 250441Z 05012KT 18/17 A2982 RMK A01 T01780165  RH  092%=      5-min Rain = 0
KDO2 250442Z 05012KT 18/17 A2982 RMK A01 T01780165  RH  092%=      5-min Rain = 0
KDO2 250443Z 05011KT 18/17 A2982 RMK A01 T01790165  RH  092%=      5-min Rain = 0
KDO2 250444Z 05012KT 18/17 A2982 RMK A01 T01780165  RH  092%=      5-min Rain = 0
KDO2 250445Z 06013KT 18/17 A2982 RMK A01 T01780165  RH  092%=      5-min Rain = 0
KDO2 250446Z 06013KT 18/17 A2982 RMK A01 T01780165  RH  092%=      5-min Rain = 0
KDO2 250447Z 06013KT 18/17 A2983 RMK A01 T01780165  RH  092%=      5-min Rain = 0
KDO2 250448Z 06013KT 18/17 A2983 RMK A01 T01780165  RH  092%=      5-min Rain = 0
KDO2 250449Z 06010KT 18/17 A2983 RMK A01 T01780165  RH  092%=      5-min Rain = 0
KDO2 250450Z 06013KT 18/17 A2983 RMK A01 T01780166  RH  092%=      5-min Rain = 0
KDO2 250451Z 06011KT 18/17 A2983 RMK A01 T01780165  RH  092%=      5-min Rain = 0
KDO2 250452Z 06009KT 18/17 A2984 RMK A01 T01780165  RH  092%=      5-min Rain = 0
KDO2 250453Z 06009KT 18/17 A2984 RMK A01 T01780166  RH  093%=      5-min Rain = 0
KDO2 250454Z 06010KT 18/17 A2984 RMK A01 T01780166  RH  093%=      5-min Rain = 0
KDO2 250455Z 05011KT 18/17 A2984 RMK A01 T01780166  RH  093%=      5-min Rain = 0
KDO2 250456Z 05009KT 18/17 A2984 RMK A01 T01780166  RH  093%=      5-min Rain = 0
KDO2 250457Z 05010KT 18/17 A2984 RMK A01 T01780165  RH  093%=      5-min Rain = 0
KDO2 250458Z 06011KT 18/17 A2984 RMK A01 T01770165  RH  092%=      5-min Rain = 0
KDO2 250459Z 06009KT 18/16 A2984 RMK A01 T01770164  RH  092%=      5-min Rain = 0

Page generated in 0.2205 seconds.